Observation data for Welch on 01/18/2019      Previous  Date  Next       Current Mesonet Observations  Soil Data  Daily Summary Page  Observations in Plain Language
KWE2 180600Z 21010KT 06/M00 A3004 RMK A01 T00571002  RH  066%=      5-min Rain = 0
KWE2 180601Z 21010KT 06/M00 A3004 RMK A01 T00561002  RH  066%=      5-min Rain = 0
KWE2 180602Z 21009KT 06/M00 A3004 RMK A01 T00571001  RH  066%=      5-min Rain = 0
KWE2 180603Z 21009KT 06/M00 A3004 RMK A01 T00581001  RH  066%=      5-min Rain = 0
KWE2 180604Z 21009KT 06/M00 A3004 RMK A01 T00571001  RH  066%=      5-min Rain = 0
KWE2 180605Z 21008KT 06/00 A3004 RMK A01 T005800-0  RH  066%=      5-min Rain = 0
KWE2 180606Z 21008KT 06/00 A3004 RMK A01 T005800-0  RH  066%=      5-min Rain = 0
KWE2 180607Z 21008KT 06/00 A3004 RMK A01 T00580000  RH  066%=      5-min Rain = 0
KWE2 180608Z 22007KT 06/00 A3004 RMK A01 T005700-0  RH  066%=      5-min Rain = 0
KWE2 180609Z 22008KT 06/00 A3004 RMK A01 T005700-0  RH  066%=      5-min Rain = 0
KWE2 180610Z 22008KT 06/M00 A3004 RMK A01 T00571001  RH  067%=      5-min Rain = 0
KWE2 180611Z 22008KT 06/M00 A3004 RMK A01 T00561001  RH  067%=      5-min Rain = 0
KWE2 180612Z 22007KT 06/00 A3004 RMK A01 T005600-0  RH  067%=      5-min Rain = 0
KWE2 180613Z 22007KT 06/00 A3004 RMK A01 T005600-0  RH  067%=      5-min Rain = 0
KWE2 180614Z 22008KT 06/M00 A3004 RMK A01 T00551001  RH  067%=      5-min Rain = 0
KWE2 180615Z 22008KT 06/M00 A3004 RMK A01 T00551001  RH  067%=      5-min Rain = 0
KWE2 180616Z 22008KT 06/00 A3004 RMK A01 T005500-0  RH  067%=      5-min Rain = 0
KWE2 180617Z 22008KT 06/00 A3004 RMK A01 T005600-0  RH  067%=      5-min Rain = 0
KWE2 180618Z 22007KT 06/00 A3004 RMK A01 T005700-0  RH  067%=      5-min Rain = 0
KWE2 180619Z 22007KT 06/M00 A3004 RMK A01 T00561001  RH  067%=      5-min Rain = 0
KWE2 180620Z 23007KT 06/M00 A3004 RMK A01 T00561001  RH  067%=      5-min Rain = 0
KWE2 180621Z 23007KT 06/M00 A3004 RMK A01 T00551001  RH  067%=      5-min Rain = 0
KWE2 180622Z 23007KT 06/M00 A3004 RMK A01 T00551001  RH  067%=      5-min Rain = 0
KWE2 180623Z 23007KT 06/M00 A3004 RMK A01 T00551001  RH  068%=      5-min Rain = 0
KWE2 180624Z 23007KT 05/M00 A3004 RMK A01 T00541001  RH  068%=      5-min Rain = 0
KWE2 180625Z 23006KT 05/M00 A3004 RMK A01 T00541001  RH  068%=      5-min Rain = 0
KWE2 180626Z 23006KT 05/M00 A3004 RMK A01 T00531001  RH  068%=      5-min Rain = 0
KWE2 180627Z 23006KT 05/M00 A3004 RMK A01 T00521001  RH  068%=      5-min Rain = 0
KWE2 180628Z 22007KT 05/M00 A3004 RMK A01 T00511002  RH  068%=      5-min Rain = 0
KWE2 180629Z 22007KT 05/M00 A3004 RMK A01 T00511001  RH  069%=      5-min Rain = 0
KWE2 180630Z 22007KT 05/M00 A3004 RMK A01 T00511001  RH  069%=      5-min Rain = 0
KWE2 180631Z 23006KT 05/M00 A3004 RMK A01 T00511001  RH  069%=      5-min Rain = 0
KWE2 180632Z 23006KT 05/M00 A3004 RMK A01 T00501002  RH  069%=      5-min Rain = 0
KWE2 180633Z 23006KT 05/M00 A3004 RMK A01 T00501001  RH  070%=      5-min Rain = 0
KWE2 180634Z 23006KT 05/M00 A3004 RMK A01 T00491001  RH  070%=      5-min Rain = 0
KWE2 180635Z 23007KT 05/M00 A3004 RMK A01 T00491001  RH  070%=      5-min Rain = 0
KWE2 180636Z 23007KT 05/M00 A3004 RMK A01 T00491001  RH  070%=      5-min Rain = 0
KWE2 180637Z 23007KT 05/M00 A3004 RMK A01 T00501001  RH  070%=      5-min Rain = 0
KWE2 180638Z 23007KT 05/00 A3004 RMK A01 T005000-0  RH  070%=      5-min Rain = 0
KWE2 180639Z 23006KT 05/00 A3004 RMK A01 T005000-0  RH  070%=      5-min Rain = 0
KWE2 180640Z 23006KT 05/00 A3004 RMK A01 T005000-0  RH  070%=      5-min Rain = 0
KWE2 180641Z 23006KT 05/00 A3004 RMK A01 T005000-0  RH  070%=      5-min Rain = 0
KWE2 180642Z 23006KT 05/00 A3004 RMK A01 T005000-0  RH  070%=      5-min Rain = 0
KWE2 180643Z 23006KT 05/00 A3004 RMK A01 T005000-0  RH  070%=      5-min Rain = 0
KWE2 180644Z 23006KT 05/M00 A3004 RMK A01 T00501001  RH  070%=      5-min Rain = 0
KWE2 180645Z 23005KT 05/M00 A3003 RMK A01 T00501001  RH  069%=      5-min Rain = 0
KWE2 180646Z 23005KT 05/M00 A3003 RMK A01 T00501001  RH  069%=      5-min Rain = 0
KWE2 180647Z 23005KT 05/M00 A3003 RMK A01 T00501001  RH  070%=      5-min Rain = 0
KWE2 180648Z 24005KT 05/M00 A3003 RMK A01 T00491001  RH  070%=      5-min Rain = 0
KWE2 180649Z 24005KT 05/M00 A3003 RMK A01 T00481002  RH  070%=      5-min Rain = 0
KWE2 180650Z 24005KT 05/M00 A3003 RMK A01 T00461004  RH  070%=      5-min Rain = 0
KWE2 180651Z 24005KT 05/M00 A3003 RMK A01 T00451002  RH  071%=      5-min Rain = 0
KWE2 180652Z 23006KT 05/M00 A3003 RMK A01 T00451002  RH  072%=      5-min Rain = 0
KWE2 180653Z 23006KT 05/M00 A3003 RMK A01 T00451002  RH  071%=      5-min Rain = 0
KWE2 180654Z 23005KT 05/M00 A3003 RMK A01 T00461002  RH  071%=      5-min Rain = 0
KWE2 180655Z 23005KT 05/M00 A3003 RMK A01 T00461002  RH  071%=      5-min Rain = 0
KWE2 180656Z 23006KT 05/M00 A3003 RMK A01 T00451002  RH  071%=      5-min Rain = 0
KWE2 180657Z 23006KT 05/M00 A3003 RMK A01 T00461003  RH  071%=      5-min Rain = 0
KWE2 180658Z 23006KT 04/M00 A3003 RMK A01 T00441003  RH  071%=      5-min Rain = 0
KWE2 180659Z 22006KT 04/M00 A3003 RMK A01 T00441002  RH  072%=      5-min Rain = 0
KWE2 180700Z 22007KT 04/M00 A3002 RMK A01 T00441002  RH  072%=      5-min Rain = 0
KWE2 180701Z 22007KT 04/M00 A3002 RMK A01 T00441003  RH  072%=      5-min Rain = 0
KWE2 180702Z 22007KT 04/M00 A3002 RMK A01 T00431004  RH  071%=      5-min Rain = 0
KWE2 180703Z 21007KT 04/M00 A3002 RMK A01 T00431004  RH  071%=      5-min Rain = 0
KWE2 180704Z 21007KT 04/M00 A3002 RMK A01 T00441003  RH  071%=      5-min Rain = 0
KWE2 180705Z 21007KT 05/M00 A3002 RMK A01 T00461002  RH  071%=      5-min Rain = 0
KWE2 180706Z 21007KT 05/00 A3002 RMK A01 T00480000  RH  071%=      5-min Rain = 0
KWE2 180707Z 21008KT 05/00 A3002 RMK A01 T00490000  RH  071%=      5-min Rain = 0
KWE2 180708Z 21007KT 05/00 A3002 RMK A01 T00500000  RH  070%=      5-min Rain = 0
KWE2 180709Z 22007KT 05/00 A3002 RMK A01 T004900-0  RH  070%=      5-min Rain = 0
KWE2 180710Z 22007KT 05/00 A3002 RMK A01 T004900-0  RH  070%=      5-min Rain = 0
KWE2 180711Z 22007KT 05/00 A3002 RMK A01 T00490001  RH  071%=      5-min Rain = 0
KWE2 180712Z 22007KT 05/00 A3002 RMK A01 T00490001  RH  071%=      5-min Rain = 0
KWE2 180713Z 22006KT 05/00 A3002 RMK A01 T004800-0  RH  071%=      5-min Rain = 0
KWE2 180714Z 23006KT 05/M00 A3002 RMK A01 T00461001  RH  071%=      5-min Rain = 0
KWE2 180715Z 23006KT 05/M00 A3002 RMK A01 T00451002  RH  072%=      5-min Rain = 0
KWE2 180716Z 22006KT 04/M00 A3002 RMK A01 T00431003  RH  072%=      5-min Rain = 0
KWE2 180717Z 22006KT 04/M00 A3002 RMK A01 T00421003  RH  073%=      5-min Rain = 0
KWE2 180718Z 22006KT 04/M00 A3002 RMK A01 T00411003  RH  073%=      5-min Rain = 0
KWE2 180719Z 22006KT 04/M00 A3002 RMK A01 T00411002  RH  073%=      5-min Rain = 0
KWE2 180720Z 22006KT 04/M00 A3002 RMK A01 T00411002  RH  073%=      5-min Rain = 0
KWE2 180721Z 22006KT 04/M00 A3002 RMK A01 T00411003  RH  073%=      5-min Rain = 0
KWE2 180722Z 22006KT 04/M00 A3002 RMK A01 T00411003  RH  073%=      5-min Rain = 0
KWE2 180723Z 22006KT 04/M00 A3002 RMK A01 T00391004  RH  073%=      5-min Rain = 0
KWE2 180724Z 22006KT 04/M01 A3002 RMK A01 T00381005  RH  073%=      5-min Rain = 0
KWE2 180725Z 22006KT 04/M01 A3002 RMK A01 T00371005  RH  074%=      5-min Rain = 0
KWE2 180726Z 22006KT 04/M01 A3002 RMK A01 T00361005  RH  074%=      5-min Rain = 0
KWE2 180727Z 22006KT 04/M01 A3002 RMK A01 T00361005  RH  074%=      5-min Rain = 0
KWE2 180728Z 22006KT 04/M01 A3002 RMK A01 T00361005  RH  074%=      5-min Rain = 0
KWE2 180729Z 22005KT 04/M01 A3002 RMK A01 T00351006  RH  075%=      5-min Rain = 0
KWE2 180730Z 21006KT 04/M01 A3002 RMK A01 T00351006  RH  075%=      5-min Rain = 0
KWE2 180731Z 21006KT 03/M01 A3002 RMK A01 T00341006  RH  075%=      5-min Rain = 0
KWE2 180732Z 21006KT 03/M01 A3001 RMK A01 T00331007  RH  075%=      5-min Rain = 0
KWE2 180733Z 21007KT 03/M01 A3001 RMK A01 T00321006  RH  076%=      5-min Rain = 0
KWE2 180734Z 21007KT 03/M01 A3001 RMK A01 T00321006  RH  076%=      5-min Rain = 0
KWE2 180735Z 21007KT 03/M01 A3001 RMK A01 T00331005  RH  076%=      5-min Rain = 0
KWE2 180736Z 21007KT 03/M00 A3001 RMK A01 T00341004  RH  076%=      5-min Rain = 0
KWE2 180737Z 21007KT 04/M00 A3001 RMK A01 T00351003  RH  076%=      5-min Rain = 0
KWE2 180738Z 21007KT 04/M00 A3001 RMK A01 T00371001  RH  076%=      5-min Rain = 0
KWE2 180739Z 21007KT 04/00 A3001 RMK A01 T00390000  RH  076%=      5-min Rain = 0
KWE2 180740Z 21007KT 04/00 A3001 RMK A01 T00400001  RH  076%=      5-min Rain = 0
KWE2 180741Z 21008KT 04/00 A3001 RMK A01 T00420003  RH  075%=      5-min Rain = 0
KWE2 180742Z 21008KT 04/00 A3001 RMK A01 T00440003  RH  075%=      5-min Rain = 0
KWE2 180743Z 21008KT 05/00 A3001 RMK A01 T00450003  RH  074%=      5-min Rain = 0
KWE2 180744Z 21008KT 05/00 A3001 RMK A01 T00450003  RH  074%=      5-min Rain = 0
KWE2 180745Z 21008KT 05/00 A3001 RMK A01 T00460003  RH  074%=      5-min Rain = 0
KWE2 180746Z 21008KT 05/00 A3001 RMK A01 T00460003  RH  074%=      5-min Rain = 0
KWE2 180747Z 20008KT 05/00 A3001 RMK A01 T00470004  RH  074%=      5-min Rain = 0
KWE2 180748Z 20008KT 05/00 A30 RMK A01 T00470003  RH  074%=      5-min Rain = 0
KWE2 180749Z 20008KT 05/00 A30 RMK A01 T00470004  RH  074%=      5-min Rain = 0
KWE2 180750Z 20008KT 05/00 A30 RMK A01 T00480004  RH  073%=      5-min Rain = 0
KWE2 180751Z 20008KT 05/00 A30 RMK A01 T00480004  RH  073%=      5-min Rain = 0
KWE2 180752Z 20009KT 05/00 A30 RMK A01 T00480004  RH  073%=      5-min Rain = 0
KWE2 180753Z 20009KT 05/00 A30 RMK A01 T00480004  RH  073%=      5-min Rain = 0
KWE2 180754Z 20009KT 05/00 A30 RMK A01 T00480004  RH  073%=      5-min Rain = 0
KWE2 180755Z 20009KT 05/00 A30 RMK A01 T00480004  RH  073%=      5-min Rain = 0
KWE2 180756Z 20009KT 05/00 A30 RMK A01 T00490004  RH  073%=      5-min Rain = 0
KWE2 180757Z 20009KT 05/00 A30 RMK A01 T00490004  RH  073%=      5-min Rain = 0
KWE2 180758Z 20009KT 05/01 A30 RMK A01 T00490005  RH  073%=      5-min Rain = 0
KWE2 180759Z 20009KT 05/01 A30 RMK A01 T00490005  RH  073%=      5-min Rain = 0
KWE2 180800Z 20009KT 05/01 A30 RMK A01 T00490005  RH  073%=      5-min Rain = 0
KWE2 180801Z 20009KT 05/01 A30 RMK A01 T00490005  RH  073%=      5-min Rain = 0
KWE2 180802Z 20008KT 05/01 A30 RMK A01 T00490005  RH  073%=      5-min Rain = 0
KWE2 180803Z 20008KT 05/01 A30 RMK A01 T00490005  RH  073%=      5-min Rain = 0
KWE2 180804Z 20008KT 05/00 A30 RMK A01 T00490004  RH  073%=      5-min Rain = 0
KWE2 180805Z 21008KT 05/01 A2999 RMK A01 T00490005  RH  073%=      5-min Rain = 0
KWE2 180806Z 21007KT 05/01 A2999 RMK A01 T00480005  RH  073%=      5-min Rain = 0
KWE2 180807Z 21007KT 05/00 A2999 RMK A01 T00480004  RH  073%=      5-min Rain = 0
KWE2 180808Z 21007KT 05/01 A2999 RMK A01 T00480005  RH  073%=      5-min Rain = 0
KWE2 180809Z 21007KT 05/00 A2999 RMK A01 T00480004  RH  073%=      5-min Rain = 0
KWE2 180810Z 21007KT 05/00 A2999 RMK A01 T00480004  RH  073%=      5-min Rain = 0
KWE2 180811Z 21007KT 05/00 A2999 RMK A01 T00480004  RH  073%=      5-min Rain = 0
KWE2 180812Z 21007KT 05/00 A2999 RMK A01 T00470004  RH  074%=      5-min Rain = 0
KWE2 180813Z 21007KT 05/00 A2999 RMK A01 T00460004  RH  074%=      5-min Rain = 0
KWE2 180814Z 21007KT 05/00 A2999 RMK A01 T00450004  RH  075%=      5-min Rain = 0
KWE2 180815Z 21007KT 05/00 A2999 RMK A01 T00450004  RH  075%=      5-min Rain = 0
KWE2 180816Z 21007KT 05/00 A2999 RMK A01 T00450004  RH  075%=      5-min Rain = 0
KWE2 180817Z 21006KT 04/00 A2999 RMK A01 T00440003  RH  075%=      5-min Rain = 0
KWE2 180818Z 21006KT 04/00 A2999 RMK A01 T00430003  RH  075%=      5-min Rain = 0
KWE2 180819Z 21006KT 04/00 A2999 RMK A01 T00410002  RH  076%=      5-min Rain = 0
KWE2 180820Z 21006KT 04/00 A2999 RMK A01 T00400002  RH  076%=      5-min Rain = 0
KWE2 180821Z 21006KT 04/00 A2999 RMK A01 T00390003  RH  077%=      5-min Rain = 0
KWE2 180822Z 21006KT 04/00 A2999 RMK A01 T00390002  RH  077%=      5-min Rain = 0
KWE2 180823Z 21006KT 04/00 A2999 RMK A01 T00380002  RH  077%=      5-min Rain = 0
KWE2 180824Z 21006KT 04/00 A2999 RMK A01 T00370002  RH  078%=      5-min Rain = 0
KWE2 180825Z 21006KT 04/00 A2999 RMK A01 T00370002  RH  078%=      5-min Rain = 0
KWE2 180826Z 21007KT 04/00 A2999 RMK A01 T00370002  RH  078%=      5-min Rain = 0
KWE2 180827Z 21007KT 04/00 A2999 RMK A01 T00360003  RH  079%=      5-min Rain = 0
KWE2 180828Z 21007KT 04/00 A2999 RMK A01 T00360003  RH  079%=      5-min Rain = 0
KWE2 180829Z 21007KT 04/00 A2999 RMK A01 T00360002  RH  079%=      5-min Rain = 0
KWE2 180830Z 21007KT 04/00 A2999 RMK A01 T00360003  RH  079%=      5-min Rain = 0
KWE2 180831Z 21007KT 04/00 A2999 RMK A01 T00360004  RH  079%=      5-min Rain = 0
KWE2 180832Z 21007KT 04/00 A2999 RMK A01 T00360004  RH  079%=      5-min Rain = 0
KWE2 180833Z 21007KT 04/00 A2999 RMK A01 T00360003  RH  079%=      5-min Rain = 0
KWE2 180834Z 21007KT 04/00 A2999 RMK A01 T00360003  RH  079%=      5-min Rain = 0
KWE2 180835Z 21007KT 04/00 A2999 RMK A01 T00360004  RH  079%=      5-min Rain = 0
KWE2 180836Z 21007KT 04/00 A2999 RMK A01 T00360004  RH  080%=      5-min Rain = 0
KWE2 180837Z 20007KT 04/00 A2999 RMK A01 T00360004  RH  079%=      5-min Rain = 0
KWE2 180838Z 20007KT 04/00 A2998 RMK A01 T00350003  RH  079%=      5-min Rain = 0
KWE2 180839Z 20007KT 04/00 A2999 RMK A01 T00350003  RH  080%=      5-min Rain = 0
KWE2 180840Z 20007KT 04/00 A2999 RMK A01 T00350003  RH  080%=      5-min Rain = 0
KWE2 180841Z 20007KT 04/00 A2999 RMK A01 T00350003  RH  080%=      5-min Rain = 0
KWE2 180842Z 20006KT 03/00 A2999 RMK A01 T00340003  RH  080%=      5-min Rain = 0
KWE2 180843Z 20007KT 03/00 A2999 RMK A01 T00340003  RH  080%=      5-min Rain = 0
KWE2 180844Z 20007KT 03/00 A2999 RMK A01 T00330002  RH  080%=      5-min Rain = 0
KWE2 180845Z 20006KT 03/00 A2999 RMK A01 T00330002  RH  080%=      5-min Rain = 0
KWE2 180846Z 20007KT 03/00 A2999 RMK A01 T00330003  RH  081%=      5-min Rain = 0
KWE2 180847Z 20007KT 03/00 A2999 RMK A01 T00330003  RH  081%=      5-min Rain = 0
KWE2 180848Z 20007KT 03/00 A2998 RMK A01 T00320003  RH  081%=      5-min Rain = 0
KWE2 180849Z 20007KT 03/00 A2998 RMK A01 T00320002  RH  081%=      5-min Rain = 0
KWE2 180850Z 21007KT 03/00 A2998 RMK A01 T00320002  RH  081%=      5-min Rain = 0
KWE2 180851Z 21007KT 03/00 A2998 RMK A01 T00320003  RH  081%=      5-min Rain = 0
KWE2 180852Z 22007KT 03/00 A2998 RMK A01 T00320003  RH  081%=      5-min Rain = 0
KWE2 180853Z 22007KT 03/00 A2998 RMK A01 T00320003  RH  081%=      5-min Rain = 0
KWE2 180854Z 22007KT 03/00 A2998 RMK A01 T00310003  RH  082%=      5-min Rain = 0
KWE2 180855Z 22008KT 03/00 A2998 RMK A01 T00300002  RH  082%=      5-min Rain = 0
KWE2 180856Z 22008KT 03/00 A2998 RMK A01 T00300002  RH  082%=      5-min Rain = 0
KWE2 180857Z 22008KT 03/00 A2998 RMK A01 T00300002  RH  082%=      5-min Rain = 0
KWE2 180858Z 22008KT 03/00 A2998 RMK A01 T00300002  RH  082%=      5-min Rain = 0
KWE2 180859Z 22008KT 03/00 A2998 RMK A01 T00300002  RH  082%=      5-min Rain = 0
KWE2 180900Z 22007KT 03/00 A2998 RMK A01 T00290002  RH  082%=      5-min Rain = 0
KWE2 180901Z 22007KT 03/00 A2998 RMK A01 T00290001  RH  082%=      5-min Rain = 0
KWE2 180902Z 22007KT 03/00 A2998 RMK A01 T00290001  RH  082%=      5-min Rain = 0
KWE2 180903Z 23007KT 03/00 A2998 RMK A01 T00280000  RH  082%=      5-min Rain = 0
KWE2 180904Z 23007KT 03/00 A2998 RMK A01 T002800-0  RH  082%=      5-min Rain = 0
KWE2 180905Z 23006KT 03/M00 A2998 RMK A01 T00261002  RH  082%=      5-min Rain = 0
KWE2 180906Z 23006KT 03/M00 A2998 RMK A01 T00251002  RH  082%=      5-min Rain = 0
KWE2 180907Z 23006KT 02/M00 A2998 RMK A01 T00241003  RH  083%=      5-min Rain = 0
KWE2 180908Z 23006KT 02/M00 A2998 RMK A01 T00231003  RH  083%=      5-min Rain = 0
KWE2 180909Z 24005KT 02/M00 A2998 RMK A01 T00221004  RH  083%=      5-min Rain = 0
KWE2 180910Z 24005KT 02/M00 A2998 RMK A01 T00211004  RH  084%=      5-min Rain = 0
KWE2 180911Z 24004KT 02/M00 A2998 RMK A01 T00211004  RH  084%=      5-min Rain = 0
KWE2 180912Z 24004KT 02/M01 A2998 RMK A01 T00201005  RH  084%=      5-min Rain = 0
KWE2 180913Z 25003KT 02/M01 A2998 RMK A01 T00191005  RH  084%=      5-min Rain = 0
KWE2 180914Z 25003KT 02/M01 A2998 RMK A01 T00181006  RH  084%=      5-min Rain = 0
KWE2 180915Z 24003KT 02/M01 A2998 RMK A01 T00161008  RH  084%=      5-min Rain = 0
KWE2 180916Z 24003KT 02/M01 A2998 RMK A01 T00161007  RH  085%=      5-min Rain = 0
KWE2 180917Z 24003KT 02/M01 A2998 RMK A01 T00151006  RH  086%=      5-min Rain = 0
KWE2 180918Z 24004KT 02/M01 A2998 RMK A01 T00161005  RH  086%=      5-min Rain = 0
KWE2 180919Z 23004KT 02/M00 A2998 RMK A01 T00171004  RH  086%=      5-min Rain = 0
KWE2 180920Z 23004KT 02/M00 A2998 RMK A01 T00171004  RH  086%=      5-min Rain = 0
KWE2 180921Z 22004KT 02/M00 A2998 RMK A01 T00181004  RH  085%=      5-min Rain = 0
KWE2 180922Z 22004KT 02/M00 A2998 RMK A01 T00181004  RH  085%=      5-min Rain = 0
KWE2 180923Z 21004KT 02/M01 A2998 RMK A01 T00181005  RH  085%=      5-min Rain = 0
KWE2 180924Z 21005KT 02/M01 A2998 RMK A01 T00181005  RH  085%=      5-min Rain = 0
KWE2 180925Z 20005KT 02/M01 A2998 RMK A01 T00181005  RH  085%=      5-min Rain = 0
KWE2 180926Z 20005KT 02/M01 A2998 RMK A01 T00181005  RH  084%=      5-min Rain = 0
KWE2 180927Z 20005KT 02/M01 A2998 RMK A01 T00181006  RH  084%=      5-min Rain = 0
KWE2 180928Z 21005KT 02/M01 A2997 RMK A01 T00181006  RH  084%=      5-min Rain = 0
KWE2 180929Z 21006KT 02/M01 A2997 RMK A01 T00181005  RH  085%=      5-min Rain = 0
KWE2 180930Z 21006KT 02/M00 A2997 RMK A01 T00191004  RH  085%=      5-min Rain = 0
KWE2 180931Z 21005KT 02/M00 A2997 RMK A01 T00201004  RH  084%=      5-min Rain = 0
KWE2 180932Z 21005KT 02/M00 A2997 RMK A01 T00201004  RH  084%=      5-min Rain = 0
KWE2 180933Z 21005KT 02/M01 A2997 RMK A01 T00201005  RH  084%=      5-min Rain = 0
KWE2 180934Z 21005KT 02/M00 A2997 RMK A01 T00201004  RH  084%=      5-min Rain = 0
KWE2 180935Z 21005KT 02/M00 A2997 RMK A01 T00201003  RH  085%=      5-min Rain = 0
KWE2 180936Z 21006KT 02/M00 A2997 RMK A01 T00211002  RH  085%=      5-min Rain = 0
KWE2 180937Z 20005KT 02/M00 A2997 RMK A01 T00221001  RH  085%=      5-min Rain = 0
KWE2 180938Z 20006KT 02/M00 A2997 RMK A01 T00221002  RH  084%=      5-min Rain = 0
KWE2 180939Z 20006KT 02/M00 A2997 RMK A01 T00221002  RH  084%=      5-min Rain = 0
KWE2 180940Z 20006KT 02/M00 A2997 RMK A01 T00221002  RH  084%=      5-min Rain = 0
KWE2 180941Z 20005KT 02/M00 A2997 RMK A01 T00221001  RH  085%=      5-min Rain = 0
KWE2 180942Z 20005KT 02/M00 A2997 RMK A01 T00221001  RH  085%=      5-min Rain = 0
KWE2 180943Z 20004KT 02/M00 A2997 RMK A01 T00221002  RH  085%=      5-min Rain = 0
KWE2 180944Z 20004KT 02/M00 A2997 RMK A01 T00221002  RH  084%=      5-min Rain = 0
KWE2 180945Z 20003KT 02/M00 A2997 RMK A01 T00221002  RH  085%=      5-min Rain = 0
KWE2 180946Z 20002KT 02/M00 A2996 RMK A01 T00221002  RH  084%=      5-min Rain = 0
KWE2 180947Z 20002KT 02/M00 A2996 RMK A01 T00211003  RH  084%=      5-min Rain = 0
KWE2 180948Z 21002KT 02/M00 A2996 RMK A01 T00201004  RH  085%=      5-min Rain = 0
KWE2 180949Z 22001KT 02/M00 A2996 RMK A01 T00191004  RH  085%=      5-min Rain = 0
KWE2 180950Z 22001KT 02/M00 A2996 RMK A01 T00191003  RH  086%=      5-min Rain = 0
KWE2 180951Z 24001KT 02/M00 A2996 RMK A01 T00191002  RH  086%=      5-min Rain = 0
KWE2 180952Z 23002KT 02/M00 A2996 RMK A01 T00191002  RH  086%=      5-min Rain = 0
KWE2 180953Z 23002KT 02/M00 A2996 RMK A01 T00201001  RH  086%=      5-min Rain = 0
KWE2 180954Z 23003KT 02/00 A2996 RMK A01 T002000-0  RH  086%=      5-min Rain = 0
KWE2 180955Z 23003KT 02/00 A2996 RMK A01 T00210001  RH  086%=      5-min Rain = 0
KWE2 180956Z 23004KT 02/00 A2996 RMK A01 T00220001  RH  086%=      5-min Rain = 0
KWE2 180957Z 23004KT 02/00 A2996 RMK A01 T00230001  RH  086%=      5-min Rain = 0
KWE2 180958Z 23004KT 02/00 A2996 RMK A01 T00240002  RH  085%=      5-min Rain = 0
KWE2 180959Z 23004KT 03/00 A2996 RMK A01 T00250002  RH  085%=      5-min Rain = 0
KWE2 181000Z 23004KT 03/00 A2996 RMK A01 T00250002  RH  085%=      5-min Rain = 0
KWE2 181001Z 23004KT 03/00 A2996 RMK A01 T00260002  RH  084%=      5-min Rain = 0
KWE2 181002Z 22004KT 03/00 A2996 RMK A01 T00260000  RH  083%=      5-min Rain = 0
KWE2 181003Z 22004KT 03/00 A2996 RMK A01 T00260000  RH  083%=      5-min Rain = 0
KWE2 181004Z 23004KT 03/00 A2996 RMK A01 T00250001  RH  084%=      5-min Rain = 0
KWE2 181005Z 22004KT 03/00 A2996 RMK A01 T00260001  RH  084%=      5-min Rain = 0
KWE2 181006Z 22005KT 03/00 A2996 RMK A01 T00260001  RH  084%=      5-min Rain = 0
KWE2 181007Z 22005KT 03/00 A2996 RMK A01 T00270001  RH  083%=      5-min Rain = 0
KWE2 181008Z 22005KT 03/00 A2995 RMK A01 T00270001  RH  083%=      5-min Rain = 0
KWE2 181009Z 22005KT 03/00 A2995 RMK A01 T00280002  RH  083%=      5-min Rain = 0
KWE2 181010Z 22006KT 03/00 A2995 RMK A01 T00290002  RH  082%=      5-min Rain = 0
KWE2 181011Z 22006KT 03/00 A2995 RMK A01 T00300002  RH  082%=      5-min Rain = 0
KWE2 181012Z 22006KT 03/00 A2995 RMK A01 T00310002  RH  081%=      5-min Rain = 0
KWE2 181013Z 21006KT 03/00 A2995 RMK A01 T00320002  RH  081%=      5-min Rain = 0
KWE2 181014Z 21006KT 03/00 A2995 RMK A01 T00330002  RH  080%=      5-min Rain = 0
KWE2 181015Z 21006KT 03/00 A2995 RMK A01 T00330002  RH  080%=      5-min Rain = 0
KWE2 181016Z 21006KT 03/00 A2995 RMK A01 T00340003  RH  080%=      5-min Rain = 0
KWE2 181017Z 21007KT 03/00 A2995 RMK A01 T00340003  RH  080%=      5-min Rain = 0
KWE2 181018Z 22006KT 03/00 A2995 RMK A01 T00340002  RH  080%=      5-min Rain = 0
KWE2 181019Z 22006KT 03/00 A2995 RMK A01 T00340003  RH  080%=      5-min Rain = 0
KWE2 181020Z 22006KT 04/00 A2995 RMK A01 T00350003  RH  080%=      5-min Rain = 0
KWE2 181021Z 23006KT 04/00 A2995 RMK A01 T00360003  RH  079%=      5-min Rain = 0
KWE2 181022Z 23006KT 04/00 A2995 RMK A01 T00360003  RH  079%=      5-min Rain = 0
KWE2 181023Z 23006KT 04/00 A2995 RMK A01 T00360003  RH  079%=      5-min Rain = 0
KWE2 181024Z 23007KT 04/00 A2994 RMK A01 T00360003  RH  079%=      5-min Rain = 0
KWE2 181025Z 22007KT 04/00 A2994 RMK A01 T00370004  RH  079%=      5-min Rain = 0
KWE2 181026Z 23008KT 04/01 A2994 RMK A01 T00380005  RH  079%=      5-min Rain = 0
KWE2 181027Z 23008KT 04/01 A2994 RMK A01 T00410006  RH  078%=      5-min Rain = 0
KWE2 181028Z 22008KT 04/01 A2994 RMK A01 T00430007  RH  077%=      5-min Rain = 0
KWE2 181029Z 22009KT 05/01 A2994 RMK A01 T00450007  RH  076%=      5-min Rain = 0
KWE2 181030Z 22009KT 05/01 A2994 RMK A01 T00470007  RH  075%=      5-min Rain = 0
KWE2 181031Z 22011KT 05/01 A2994 RMK A01 T00480008  RH  075%=      5-min Rain = 0
KWE2 181032Z 22010KT 05/01 A2994 RMK A01 T00490008  RH  075%=      5-min Rain = 0
KWE2 181033Z 22010KT 05/01 A2994 RMK A01 T00500008  RH  074%=      5-min Rain = 0
KWE2 181034Z 22011KT 05/01 A2994 RMK A01 T00510008  RH  074%=      5-min Rain = 0
KWE2 181035Z 22012KT 05/01 A2994 RMK A01 T00520008  RH  073%=      5-min Rain = 0
KWE2 181036Z 22013KT 05/01 A2994 RMK A01 T00530008  RH  073%=      5-min Rain = 0
KWE2 181037Z 22013KT 05/01 A2994 RMK A01 T00540009  RH  072%=      5-min Rain = 0
KWE2 181038Z 22013KT 06/01 A2994 RMK A01 T00550008  RH  072%=      5-min Rain = 0
KWE2 181039Z 22013KT 06/01 A2994 RMK A01 T00560008  RH  071%=      5-min Rain = 0
KWE2 181040Z 22012KT 06/01 A2993 RMK A01 T00560008  RH  071%=      5-min Rain = 0
KWE2 181041Z 22013KT 06/01 A2993 RMK A01 T00560008  RH  071%=      5-min Rain = 0
KWE2 181042Z 22013KT 06/01 A2993 RMK A01 T00560008  RH  071%=      5-min Rain = 0
KWE2 181043Z 22013KT 06/01 A2993 RMK A01 T00550008  RH  071%=      5-min Rain = 0
KWE2 181044Z 22013KT 06/01 A2993 RMK A01 T00560008  RH  071%=      5-min Rain = 0
KWE2 181045Z 22014KT 06/01 A2993 RMK A01 T00560008  RH  071%=      5-min Rain = 0
KWE2 181046Z 22013KT 06/01 A2993 RMK A01 T00560008  RH  071%=      5-min Rain = 0
KWE2 181047Z 22014KT 06/01 A2993 RMK A01 T00560008  RH  071%=      5-min Rain = 0
KWE2 181048Z 22014KT 06/01 A2993 RMK A01 T00560007  RH  071%=      5-min Rain = 0
KWE2 181049Z 22013KT 06/01 A2993 RMK A01 T00560007  RH  070%=      5-min Rain = 0
KWE2 181050Z 22013KT 06/01 A2993 RMK A01 T00570007  RH  071%=      5-min Rain = 0
KWE2 181051Z 22013KT 06/01 A2993 RMK A01 T00560007  RH  071%=      5-min Rain = 0
KWE2 181052Z 22014KT 06/01 A2993 RMK A01 T00560007  RH  071%=      5-min Rain = 0
KWE2 181053Z 22013KT 06/01 A2993 RMK A01 T00560007  RH  070%=      5-min Rain = 0
KWE2 181054Z 22013KT 06/01 A2993 RMK A01 T00560007  RH  070%=      5-min Rain = 0
KWE2 181055Z 22012KT 06/01 A2993 RMK A01 T00570007  RH  070%=      5-min Rain = 0
KWE2 181056Z 22012KT 06/01 A2993 RMK A01 T00560007  RH  070%=      5-min Rain = 0
KWE2 181057Z 22011KT 06/01 A2992 RMK A01 T00560007  RH  071%=      5-min Rain = 0
KWE2 181058Z 22011KT 06/01 A2992 RMK A01 T00550007  RH  071%=      5-min Rain = 0
KWE2 181059Z 22012KT 06/01 A2992 RMK A01 T00550007  RH  071%=      5-min Rain = 0
KWE2 181100Z 22011KT 06/01 A2993 RMK A01 T00550007  RH  071%=      5-min Rain = 0
KWE2 181101Z 23012KT 06/01 A2993 RMK A01 T00550006  RH  071%=      5-min Rain = 0
KWE2 181102Z 22012KT 06/01 A2993 RMK A01 T00550006  RH  071%=      5-min Rain = 0
KWE2 181103Z 23012KT 06/01 A2993 RMK A01 T00550006  RH  071%=      5-min Rain = 0
KWE2 181104Z 22012KT 06/01 A2992 RMK A01 T00550006  RH  071%=      5-min Rain = 0
KWE2 181105Z 22012KT 06/01 A2992 RMK A01 T00550006  RH  071%=      5-min Rain = 0
KWE2 181106Z 22011KT 06/01 A2992 RMK A01 T00550006  RH  071%=      5-min Rain = 0
KWE2 181107Z 23011KT 06/01 A2992 RMK A01 T00550006  RH  071%=      5-min Rain = 0
KWE2 181108Z 23012KT 06/01 A2992 RMK A01 T00550007  RH  071%=      5-min Rain = 0
KWE2 181109Z 23012KT 06/01 A2992 RMK A01 T00550006  RH  071%=      5-min Rain = 0
KWE2 181110Z 22012KT 06/01 A2992 RMK A01 T00550006  RH  071%=      5-min Rain = 0
KWE2 181111Z 22012KT 06/01 A2992 RMK A01 T00550007  RH  071%=      5-min Rain = 0
KWE2 181112Z 23011KT 06/01 A2992 RMK A01 T00550006  RH  071%=      5-min Rain = 0
KWE2 181113Z 23011KT 06/01 A2992 RMK A01 T00550006  RH  071%=      5-min Rain = 0
KWE2 181114Z 23011KT 06/01 A2992 RMK A01 T00550006  RH  071%=      5-min Rain = 0
KWE2 181115Z 23012KT 06/01 A2992 RMK A01 T00550006  RH  071%=      5-min Rain = 0
KWE2 181116Z 23012KT 06/01 A2992 RMK A01 T00560006  RH  070%=      5-min Rain = 0
KWE2 181117Z 22011KT 06/01 A2992 RMK A01 T00560006  RH  070%=      5-min Rain = 0
KWE2 181118Z 23012KT 06/01 A2991 RMK A01 T00560006  RH  070%=      5-min Rain = 0
KWE2 181119Z 22013KT 06/01 A2991 RMK A01 T00560006  RH  070%=      5-min Rain = 0
KWE2 181120Z 22012KT 06/01 A2991 RMK A01 T00570006  RH  070%=      5-min Rain = 0
KWE2 181121Z 22013KT 06/01 A2991 RMK A01 T00570007  RH  070%=      5-min Rain = 0
KWE2 181122Z 22012KT 06/01 A2991 RMK A01 T00570006  RH  070%=      5-min Rain = 0
KWE2 181123Z 22013KT 06/01 A2991 RMK A01 T00580006  RH  069%=      5-min Rain = 0
KWE2 181124Z 22013KT 06/01 A299 RMK A01 T00570006  RH  069%=      5-min Rain = 0
KWE2 181125Z 22013KT 06/01 A299 RMK A01 T00580006  RH  069%=      5-min Rain = 0
KWE2 181126Z 22012KT 06/01 A299 RMK A01 T00580006  RH  069%=      5-min Rain = 0
KWE2 181127Z 22012KT 06/01 A299 RMK A01 T00580006  RH  069%=      5-min Rain = 0
KWE2 181128Z 22013KT 06/01 A299 RMK A01 T00580006  RH  069%=      5-min Rain = 0
KWE2 181129Z 23012KT 06/01 A299 RMK A01 T00580006  RH  069%=      5-min Rain = 0
KWE2 181130Z 22013KT 06/01 A299 RMK A01 T00590006  RH  069%=      5-min Rain = 0
KWE2 181131Z 22014KT 06/01 A299 RMK A01 T00590006  RH  068%=      5-min Rain = 0
KWE2 181132Z 23013KT 06/01 A299 RMK A01 T00600006  RH  068%=      5-min Rain = 0
KWE2 181133Z 23013KT 06/01 A299 RMK A01 T00600006  RH  068%=      5-min Rain = 0
KWE2 181134Z 23013KT 06/01 A299 RMK A01 T00600006  RH  068%=      5-min Rain = 0
KWE2 181135Z 23012KT 06/01 A299 RMK A01 T00600006  RH  068%=      5-min Rain = 0
KWE2 181136Z 23013KT 06/01 A299 RMK A01 T00600006  RH  068%=      5-min Rain = 0
KWE2 181137Z 23012KT 06/01 A299 RMK A01 T00590006  RH  069%=      5-min Rain = 0
KWE2 181138Z 23013KT 06/01 A299 RMK A01 T00590006  RH  069%=      5-min Rain = 0
KWE2 181139Z 23013KT 06/01 A2989 RMK A01 T00590006  RH  069%=      5-min Rain = 0
KWE2 181140Z 22012KT 06/01 A2989 RMK A01 T00590006  RH  068%=      5-min Rain = 0
KWE2 181141Z 23013KT 06/01 A2989 RMK A01 T00600006  RH  068%=      5-min Rain = 0
KWE2 181142Z 23013KT 06/01 A2989 RMK A01 T00600006  RH  068%=      5-min Rain = 0
KWE2 181143Z 23014KT 06/01 A2989 RMK A01 T00600006  RH  068%=      5-min Rain = 0
KWE2 181144Z 23012KT 06/01 A2989 RMK A01 T00610006  RH  068%=      5-min Rain = 0
KWE2 181145Z 23012KT 06/01 A2989 RMK A01 T00610006  RH  068%=      5-min Rain = 0
KWE2 181146Z 23014KT 06/01 A2989 RMK A01 T00610006  RH  068%=      5-min Rain = 0
KWE2 181147Z 23013KT 06/01 A2989 RMK A01 T00610006  RH  068%=      5-min Rain = 0
KWE2 181148Z 23012KT 06/01 A2989 RMK A01 T00620006  RH  068%=      5-min Rain = 0
KWE2 181149Z 23013KT 06/01 A2989 RMK A01 T00620006  RH  068%=      5-min Rain = 0
KWE2 181150Z 23012KT 06/01 A2989 RMK A01 T00620006  RH  067%=      5-min Rain = 0
KWE2 181151Z 23012KT 06/01 A2989 RMK A01 T00620006  RH  067%=      5-min Rain = 0
KWE2 181152Z 23012KT 06/01 A2989 RMK A01 T00620006  RH  067%=      5-min Rain = 0
KWE2 181153Z 23013KT 06/01 A2989 RMK A01 T00620006  RH  068%=      5-min Rain = 0
KWE2 181154Z 23013KT 06/01 A2989 RMK A01 T00620006  RH  067%=      5-min Rain = 0
KWE2 181155Z 23012KT 06/01 A2989 RMK A01 T00620006  RH  067%=      5-min Rain = 0
KWE2 181156Z 23012KT 06/01 A2989 RMK A01 T00620006  RH  067%=      5-min Rain = 0
KWE2 181157Z 23013KT 06/01 A2989 RMK A01 T00620006  RH  067%=      5-min Rain = 0
KWE2 181158Z 23012KT 06/01 A2989 RMK A01 T00630006  RH  067%=      5-min Rain = 0
KWE2 181159Z 23012KT 06/01 A2989 RMK A01 T00630006  RH  067%=      5-min Rain = 0
KWE2 181200Z 23012KT 06/01 A2989 RMK A01 T00630006  RH  067%=      5-min Rain = 0
KWE2 181201Z 23012KT 06/01 A2989 RMK A01 T00630006  RH  067%=      5-min Rain = 0
KWE2 181202Z 23012KT 06/01 A2989 RMK A01 T00640006  RH  067%=      5-min Rain = 0
KWE2 181203Z 23013KT 06/01 A2989 RMK A01 T00640007  RH  067%=      5-min Rain = 0
KWE2 181204Z 23013KT 07/01 A2989 RMK A01 T00650006  RH  066%=      5-min Rain = 0
KWE2 181205Z 23014KT 07/01 A2989 RMK A01 T00650006  RH  066%=      5-min Rain = 0
KWE2 181206Z 23013KT 07/01 A2989 RMK A01 T00660006  RH  066%=      5-min Rain = 0
KWE2 181207Z 23013KT 07/01 A2989 RMK A01 T00660006  RH  066%=      5-min Rain = 0
KWE2 181208Z 23012KT 07/01 A2989 RMK A01 T00660006  RH  066%=      5-min Rain = 0
KWE2 181209Z 22012KT 07/01 A2989 RMK A01 T00660007  RH  066%=      5-min Rain = 0
KWE2 181210Z 22013KT 07/01 A2988 RMK A01 T00660006  RH  066%=      5-min Rain = 0
KWE2 181211Z 22012KT 07/01 A2988 RMK A01 T00660006  RH  066%=      5-min Rain = 0
KWE2 181212Z 22013KT 07/01 A2988 RMK A01 T00660006  RH  065%=      5-min Rain = 0
KWE2 181213Z 22013KT 07/01 A2988 RMK A01 T00660006  RH  065%=      5-min Rain = 0
KWE2 181214Z 22012KT 07/01 A2988 RMK A01 T00660006  RH  066%=      5-min Rain = 0
KWE2 181215Z 22012KT 07/01 A2988 RMK A01 T00660006  RH  066%=      5-min Rain = 0
KWE2 181216Z 23012KT 07/01 A2988 RMK A01 T00660006  RH  066%=      5-min Rain = 0
KWE2 181217Z 23012KT 07/01 A2988 RMK A01 T00660006  RH  065%=      5-min Rain = 0
KWE2 181218Z 23012KT 07/01 A2989 RMK A01 T00660006  RH  065%=      5-min Rain = 0
KWE2 181219Z 22012KT 07/01 A2989 RMK A01 T00660006  RH  066%=      5-min Rain = 0
KWE2 181220Z 23013KT 07/01 A2989 RMK A01 T00660007  RH  066%=      5-min Rain = 0
KWE2 181221Z 23012KT 07/01 A2989 RMK A01 T00660006  RH  066%=      5-min Rain = 0
KWE2 181222Z 23011KT 07/01 A2989 RMK A01 T00660006  RH  066%=      5-min Rain = 0
KWE2 181223Z 22011KT 07/01 A2989 RMK A01 T00660007  RH  066%=      5-min Rain = 0
KWE2 181224Z 22011KT 07/01 A2988 RMK A01 T00650007  RH  066%=      5-min Rain = 0
KWE2 181225Z 22011KT 07/01 A2988 RMK A01 T00650007  RH  066%=      5-min Rain = 0
KWE2 181226Z 22011KT 07/01 A2988 RMK A01 T00650006  RH  066%=      5-min Rain = 0
KWE2 181227Z 22011KT 07/01 A2988 RMK A01 T00650007  RH  066%=      5-min Rain = 0
KWE2 181228Z 22011KT 07/01 A2988 RMK A01 T00650007  RH  066%=      5-min Rain = 0
KWE2 181229Z 22012KT 07/01 A2988 RMK A01 T00650007  RH  066%=      5-min Rain = 0
KWE2 181230Z 22012KT 07/01 A2988 RMK A01 T00650007  RH  067%=      5-min Rain = 0
KWE2 181231Z 22011KT 07/01 A2988 RMK A01 T00650007  RH  067%=      5-min Rain = 0
KWE2 181232Z 22012KT 06/01 A2988 RMK A01 T00640007  RH  067%=      5-min Rain = 0
KWE2 181233Z 22013KT 06/01 A2988 RMK A01 T00640007  RH  067%=      5-min Rain = 0
KWE2 181234Z 22012KT 07/01 A2988 RMK A01 T00650007  RH  067%=      5-min Rain = 0
KWE2 181235Z 22012KT 07/01 A2988 RMK A01 T00650007  RH  067%=      5-min Rain = 0
KWE2 181236Z 22012KT 07/01 A2988 RMK A01 T00650008  RH  066%=      5-min Rain = 0
KWE2 181237Z 22012KT 07/01 A2988 RMK A01 T00660008  RH  066%=      5-min Rain = 0
KWE2 181238Z 22013KT 07/01 A2988 RMK A01 T00660008  RH  066%=      5-min Rain = 0
KWE2 181239Z 22013KT 07/01 A2988 RMK A01 T00670008  RH  066%=      5-min Rain = 0
KWE2 181240Z 22013KT 07/01 A2988 RMK A01 T00670008  RH  066%=      5-min Rain = 0
KWE2 181241Z 22013KT 07/01 A2987 RMK A01 T00680008  RH  066%=      5-min Rain = 0
KWE2 181242Z 22013KT 07/01 A2987 RMK A01 T00680008  RH  065%=      5-min Rain = 0
KWE2 181243Z 22013KT 07/01 A2988 RMK A01 T00690008  RH  065%=      5-min Rain = 0
KWE2 181244Z 22013KT 07/01 A2988 RMK A01 T00690008  RH  065%=      5-min Rain = 0
KWE2 181245Z 22014KT 07/01 A2987 RMK A01 T00700009  RH  065%=      5-min Rain = 0
KWE2 181246Z 22013KT 07/01 A2987 RMK A01 T00710009  RH  065%=      5-min Rain = 0
KWE2 181247Z 22012KT 07/01 A2988 RMK A01 T00710009  RH  064%=      5-min Rain = 0
KWE2 181248Z 23013KT 07/01 A2988 RMK A01 T00720009  RH  064%=      5-min Rain = 0
KWE2 181249Z 23013KT 07/01 A2988 RMK A01 T00730009  RH  064%=      5-min Rain = 0
KWE2 181250Z 23014KT 07/01 A2988 RMK A01 T00740010  RH  064%=      5-min Rain = 0
KWE2 181251Z 23013KT 07/01 A2988 RMK A01 T00740010  RH  064%=      5-min Rain = 0
KWE2 181252Z 23014KT 08/01 A2987 RMK A01 T00750010  RH  063%=      5-min Rain = 0
KWE2 181253Z 22015KT 08/01 A2988 RMK A01 T00760010  RH  063%=      5-min Rain = 0
KWE2 181254Z 22015KT 08/01 A2988 RMK A01 T00770010  RH  063%=      5-min Rain = 0
KWE2 181255Z 22014KT 08/01 A2988 RMK A01 T00770010  RH  062%=      5-min Rain = 0
KWE2 181256Z 22015KT 08/01 A2988 RMK A01 T00780010  RH  062%=      5-min Rain = 0
KWE2 181257Z 22015KT 08/01 A2988 RMK A01 T00780011  RH  062%=      5-min Rain = 0
KWE2 181258Z 22015KT 08/01 A2988 RMK A01 T00790011  RH  062%=      5-min Rain = 0
KWE2 181259Z 22016KT 08/01 A2987 RMK A01 T00790011  RH  062%=      5-min Rain = 0
KWE2 181300Z 22016KT 08/01 A2988 RMK A01 T00810011  RH  062%=      5-min Rain = 0
KWE2 181301Z 22015KT 08/01 A2988 RMK A01 T00820012  RH  061%=      5-min Rain = 0
KWE2 181302Z 23015KT 08/01 A2988 RMK A01 T00810011  RH  061%=      5-min Rain = 0
KWE2 181303Z 23016KT 08/01 A2987 RMK A01 T00820011  RH  061%=      5-min Rain = 0
KWE2 181304Z 23015KT 08/01 A2987 RMK A01 T00820011  RH  061%=      5-min Rain = 0
KWE2 181305Z 22015KT 08/01 A2987 RMK A01 T00820012  RH  061%=      5-min Rain = 0
KWE2 181306Z 22015KT 08/01 A2987 RMK A01 T00820012  RH  061%=      5-min Rain = 0
KWE2 181307Z 22014KT 08/01 A2988 RMK A01 T00820012  RH  061%=      5-min Rain = 0
KWE2 181308Z 23016KT 08/01 A2988 RMK A01 T00820012  RH  061%=      5-min Rain = 0
KWE2 181309Z 23015KT 08/01 A2988 RMK A01 T00820012  RH  061%=      5-min Rain = 0
KWE2 181310Z 23015KT 08/01 A2988 RMK A01 T00820012  RH  061%=      5-min Rain = 0
KWE2 181311Z 23017KT 08/01 A2988 RMK A01 T00820012  RH  061%=      5-min Rain = 0
KWE2 181312Z 23016KT 08/01 A2988 RMK A01 T00830012  RH  061%=      5-min Rain = 0
KWE2 181313Z 22016KT 08/01 A2988 RMK A01 T00830012  RH  061%=      5-min Rain = 0
KWE2 181314Z 23016KT 08/01 A2988 RMK A01 T00830012  RH  061%=      5-min Rain = 0
KWE2 181315Z 23016KT 08/01 A2988 RMK A01 T00830012  RH  061%=      5-min Rain = 0
KWE2 181316Z 23016KT 08/01 A2988 RMK A01 T00840012  RH  061%=      5-min Rain = 0
KWE2 181317Z 23015KT 08/01 A2988 RMK A01 T00840012  RH  061%=      5-min Rain = 0
KWE2 181318Z 23015KT 08/01 A2988 RMK A01 T00840012  RH  061%=      5-min Rain = 0
KWE2 181319Z 23015KT 08/01 A2988 RMK A01 T00840012  RH  061%=      5-min Rain = 0
KWE2 181320Z 23015KT 08/01 A2988 RMK A01 T00840012  RH  061%=      5-min Rain = 0
KWE2 181321Z 23016KT 08/01 A2988 RMK A01 T00840012  RH  060%=      5-min Rain = 0
KWE2 181322Z 23016KT 09/01 A2988 RMK A01 T00850012  RH  060%=      5-min Rain = 0
KWE2 181323Z 23014KT 08/01 A2988 RMK A01 T00840012  RH  060%=      5-min Rain = 0
KWE2 181324Z 23014KT 08/01 A2988 RMK A01 T00840012  RH  061%=      5-min Rain = 0
KWE2 181325Z 23014KT 08/01 A2988 RMK A01 T00830012  RH  061%=      5-min Rain = 0
KWE2 181326Z 23014KT 08/01 A2988 RMK A01 T00830012  RH  061%=      5-min Rain = 0
KWE2 181327Z 23014KT 08/01 A2988 RMK A01 T00830012  RH  061%=      5-min Rain = 0
KWE2 181328Z 23013KT 08/01 A2988 RMK A01 T00830012  RH  061%=      5-min Rain = 0
KWE2 181329Z 22015KT 08/01 A2988 RMK A01 T00830012  RH  061%=      5-min Rain = 0
KWE2 181330Z 22014KT 08/01 A2988 RMK A01 T00840012  RH  061%=      5-min Rain = 0
KWE2 181331Z 22015KT 08/01 A2987 RMK A01 T00830012  RH  061%=      5-min Rain = 0
KWE2 181332Z 23016KT 08/01 A2987 RMK A01 T00830012  RH  061%=      5-min Rain = 0
KWE2 181333Z 23016KT 08/01 A2987 RMK A01 T00840012  RH  060%=      5-min Rain = 0
KWE2 181334Z 23016KT 09/01 A2987 RMK A01 T00850012  RH  060%=      5-min Rain = 0
KWE2 181335Z 23013KT 09/01 A2987 RMK A01 T00850012  RH  060%=      5-min Rain = 0
KWE2 181336Z 23014KT 09/01 A2988 RMK A01 T00850012  RH  060%=      5-min Rain = 0
KWE2 181337Z 23014KT 08/01 A2987 RMK A01 T00840013  RH  061%=      5-min Rain = 0
KWE2 181338Z 23014KT 08/01 A2987 RMK A01 T00840012  RH  061%=      5-min Rain = 0
KWE2 181339Z 23014KT 08/01 A2988 RMK A01 T00840013  RH  061%=      5-min Rain = 0
KWE2 181340Z 23014KT 08/01 A2988 RMK A01 T00840012  RH  061%=      5-min Rain = 0
KWE2 181341Z 23016KT 09/01 A2988 RMK A01 T00850013  RH  060%=      5-min Rain = 0
KWE2 181342Z 23014KT 09/01 A2988 RMK A01 T00860013  RH  060%=      5-min Rain = 0
KWE2 181343Z 23014KT 09/01 A2988 RMK A01 T00860012  RH  060%=      5-min Rain = 0
KWE2 181344Z 23015KT 09/01 A2987 RMK A01 T00860013  RH  060%=      5-min Rain = 0
KWE2 181345Z 23014KT 09/01 A2987 RMK A01 T00870013  RH  060%=      5-min Rain = 0
KWE2 181346Z 23014KT 09/01 A2987 RMK A01 T00870013  RH  060%=      5-min Rain = 0
KWE2 181347Z 23014KT 09/01 A2987 RMK A01 T00870013  RH  060%=      5-min Rain = 0
KWE2 181348Z 23013KT 09/01 A2987 RMK A01 T00870013  RH  060%=      5-min Rain = 0
KWE2 181349Z 22014KT 09/01 A2987 RMK A01 T00870013  RH  060%=      5-min Rain = 0
KWE2 181350Z 23013KT 09/01 A2987 RMK A01 T00880014  RH  060%=      5-min Rain = 0
KWE2 181351Z 22014KT 09/01 A2987 RMK A01 T00880014  RH  060%=      5-min Rain = 0
KWE2 181352Z 22014KT 09/01 A2987 RMK A01 T00880014  RH  060%=      5-min Rain = 0
KWE2 181353Z 22014KT 09/01 A2987 RMK A01 T00890014  RH  060%=      5-min Rain = 0
KWE2 181354Z 22015KT 09/01 A2987 RMK A01 T00890014  RH  059%=      5-min Rain = 0
KWE2 181355Z 22015KT 09/01 A2987 RMK A01 T00900014  RH  059%=      5-min Rain = 0
KWE2 181356Z 22015KT 09/01 A2987 RMK A01 T00900014  RH  059%=      5-min Rain = 0
KWE2 181357Z 23015KT 09/01 A2987 RMK A01 T00910014  RH  059%=      5-min Rain = 0
KWE2 181358Z 22014KT 09/01 A2987 RMK A01 T00900014  RH  059%=      5-min Rain = 0
KWE2 181359Z 22016KT 09/01 A2987 RMK A01 T00900014  RH  059%=      5-min Rain = 0
KWE2 181400Z 23016KT 09/01 A2987 RMK A01 T00910014  RH  059%=      5-min Rain = 0
KWE2 181401Z 22015KT 09/01 A2986 RMK A01 T00910014  RH  058%=      5-min Rain = 0
KWE2 181402Z 22015KT 09/01 A2986 RMK A01 T00920014  RH  058%=      5-min Rain = 0
KWE2 181403Z 22014KT 09/01 A2986 RMK A01 T00920014  RH  058%=      5-min Rain = 0
KWE2 181404Z 22015KT 09/02 A2986 RMK A01 T00920015  RH  059%=      5-min Rain = 0
KWE2 181405Z 22015KT 09/02 A2986 RMK A01 T00920015  RH  058%=      5-min Rain = 0
KWE2 181406Z 22015KT 09/02 A2986 RMK A01 T00930015  RH  058%=      5-min Rain = 0
KWE2 181407Z 22016KT 09/02 A2986 RMK A01 T00930015  RH  058%=      5-min Rain = 0
KWE2 181408Z 22015KT 09/02 A2986 RMK A01 T00940015  RH  058%=      5-min Rain = 0
KWE2 181409Z 22016KT 09/02 A2986 RMK A01 T00940016  RH  058%=      5-min Rain = 0
KWE2 181410Z 22017KT 10/02 A2986 RMK A01 T00950016  RH  058%=      5-min Rain = 0
KWE2 181411Z 22017KT 10/02 A2986 RMK A01 T00960016  RH  057%=      5-min Rain = 0
KWE2 181412Z 22015KT 10/02 A2986 RMK A01 T00960016  RH  057%=      5-min Rain = 0
KWE2 181413Z 22016KT 10/02 A2986 RMK A01 T00950016  RH  058%=      5-min Rain = 0
KWE2 181414Z 22016KT 10/02 A2986 RMK A01 T00950016  RH  058%=      5-min Rain = 0
KWE2 181415Z 22017KT 09/02 A2985 RMK A01 T00940016  RH  058%=      5-min Rain = 0
KWE2 181416Z 22016KT 10/02 A2985 RMK A01 T00950016  RH  058%=      5-min Rain = 0
KWE2 181417Z 22014KT 10/02 A2986 RMK A01 T00950016  RH  058%=      5-min Rain = 0
KWE2 181418Z 22014KT 09/02 A2986 RMK A01 T00940016  RH  058%=      5-min Rain = 0
KWE2 181419Z 22016KT 09/02 A2986 RMK A01 T00940016  RH  058%=      5-min Rain = 0
KWE2 181420Z 22015KT 09/02 A2986 RMK A01 T00940016  RH  058%=      5-min Rain = 0
KWE2 181421Z 22014KT 09/02 A2986 RMK A01 T00940016  RH  058%=      5-min Rain = 0
KWE2 181422Z 22016KT 09/02 A2985 RMK A01 T00940016  RH  058%=      5-min Rain = 0
KWE2 181423Z 22014KT 10/02 A2986 RMK A01 T00950016  RH  058%=      5-min Rain = 0
KWE2 181424Z 22015KT 10/02 A2986 RMK A01 T00950017  RH  058%=      5-min Rain = 0
KWE2 181425Z 22015KT 10/02 A2986 RMK A01 T00950017  RH  058%=      5-min Rain = 0
KWE2 181426Z 22015KT 10/02 A2985 RMK A01 T00960017  RH  058%=      5-min Rain = 0
KWE2 181427Z 22014KT 10/02 A2985 RMK A01 T00960017  RH  058%=      5-min Rain = 0
KWE2 181428Z 22015KT 10/02 A2986 RMK A01 T00960017  RH  058%=      5-min Rain = 0
KWE2 181429Z 22014KT 10/02 A2986 RMK A01 T00960017  RH  058%=      5-min Rain = 0
KWE2 181430Z 22015KT 10/02 A2986 RMK A01 T00970018  RH  058%=      5-min Rain = 0
KWE2 181431Z 22016KT 10/02 A2985 RMK A01 T00970018  RH  058%=      5-min Rain = 0
KWE2 181432Z 23015KT 10/02 A2985 RMK A01 T00980018  RH  057%=      5-min Rain = 0
KWE2 181433Z 23014KT 10/02 A2986 RMK A01 T00990018  RH  057%=      5-min Rain = 0
KWE2 181434Z 23015KT 10/02 A2985 RMK A01 T00980018  RH  057%=      5-min Rain = 0
KWE2 181435Z 23015KT 10/02 A2985 RMK A01 T00980018  RH  057%=      5-min Rain = 0
KWE2 181436Z 23014KT 10/02 A2985 RMK A01 T00980018  RH  057%=      5-min Rain = 0
KWE2 181437Z 23014KT 10/02 A2986 RMK A01 T00980018  RH  058%=      5-min Rain = 0
KWE2 181438Z 23013KT 10/02 A2986 RMK A01 T00970018  RH  058%=      5-min Rain = 0
KWE2 181439Z 23013KT 10/02 A2986 RMK A01 T00960018  RH  058%=      5-min Rain = 0
KWE2 181440Z 23013KT 10/02 A2986 RMK A01 T00960018  RH  058%=      5-min Rain = 0
KWE2 181441Z 23013KT 10/02 A2986 RMK A01 T00950018  RH  058%=      5-min Rain = 0
KWE2 181442Z 23013KT 10/02 A2986 RMK A01 T00950018  RH  059%=      5-min Rain = 0
KWE2 181443Z 23014KT 10/02 A2986 RMK A01 T00950018  RH  059%=      5-min Rain = 0
KWE2 181444Z 23011KT 10/02 A2986 RMK A01 T00950018  RH  058%=      5-min Rain = 0
KWE2 181445Z 23011KT 10/02 A2986 RMK A01 T00950018  RH  059%=      5-min Rain = 0
KWE2 181446Z 23013KT 10/02 A2986 RMK A01 T00950019  RH  059%=      5-min Rain = 0
KWE2 181447Z 23013KT 10/02 A2986 RMK A01 T00950018  RH  059%=      5-min Rain = 0
KWE2 181448Z 23014KT 09/02 A2986 RMK A01 T00940018  RH  059%=      5-min Rain = 0
KWE2 181449Z 23013KT 09/02 A2986 RMK A01 T00940018  RH  059%=      5-min Rain = 0
KWE2 181450Z 24012KT 09/02 A2986 RMK A01 T00940018  RH  059%=      5-min Rain = 0
KWE2 181451Z 23013KT 09/02 A2986 RMK A01 T00930018  RH  059%=      5-min Rain = 0
KWE2 181452Z 23012KT 09/02 A2986 RMK A01 T00930018  RH  060%=      5-min Rain = 0
KWE2 181453Z 23013KT 09/02 A2986 RMK A01 T00910018  RH  060%=      5-min Rain = 0
KWE2 181454Z 23012KT 09/02 A2986 RMK A01 T00910018  RH  060%=      5-min Rain = 0
KWE2 181455Z 23012KT 09/02 A2986 RMK A01 T00910018  RH  060%=      5-min Rain = 0
KWE2 181456Z 23012KT 09/02 A2986 RMK A01 T00910018  RH  060%=      5-min Rain = 0
KWE2 181457Z 23013KT 09/02 A2986 RMK A01 T00910018  RH  060%=      5-min Rain = 0
KWE2 181458Z 23012KT 09/02 A2986 RMK A01 T00920018  RH  060%=      5-min Rain = 0
KWE2 181459Z 23011KT 09/02 A2986 RMK A01 T00920019  RH  060%=      5-min Rain = 0
KWE2 181500Z 23013KT 09/02 A2986 RMK A01 T00930019  RH  060%=      5-min Rain = 0
KWE2 181501Z 23013KT 09/02 A2986 RMK A01 T00940019  RH  059%=      5-min Rain = 0
KWE2 181502Z 23012KT 10/02 A2986 RMK A01 T00950019  RH  059%=      5-min Rain = 0
KWE2 181503Z 23012KT 10/02 A2986 RMK A01 T00950020  RH  059%=      5-min Rain = 0
KWE2 181504Z 23013KT 10/02 A2986 RMK A01 T00960021  RH  059%=      5-min Rain = 0
KWE2 181505Z 23013KT 10/02 A2986 RMK A01 T00970021  RH  059%=      5-min Rain = 0
KWE2 181506Z 23014KT 10/02 A2986 RMK A01 T00980021  RH  059%=      5-min Rain = 0
KWE2 181507Z 23016KT 10/02 A2986 RMK A01 T00990021  RH  058%=      5-min Rain = 0
KWE2 181508Z 24015KT 10/02 A2986 RMK A01 T01000021  RH  058%=      5-min Rain = 0
KWE2 181509Z 23014KT 10/02 A2986 RMK A01 T01010022  RH  058%=      5-min Rain = 0
KWE2 181510Z 23016KT 10/02 A2986 RMK A01 T01010021  RH  058%=      5-min Rain = 0
KWE2 181511Z 23016KT 10/02 A2986 RMK A01 T01010022  RH  058%=      5-min Rain = 0
KWE2 181512Z 23013KT 10/02 A2986 RMK A01 T01010022  RH  058%=      5-min Rain = 0
KWE2 181513Z 23014KT 10/02 A2986 RMK A01 T01020023  RH  058%=      5-min Rain = 0
KWE2 181514Z 23015KT 10/02 A2986 RMK A01 T01020022  RH  058%=      5-min Rain = 0
KWE2 181515Z 23016KT 10/02 A2985 RMK A01 T01030022  RH  057%=      5-min Rain = 0
KWE2 181516Z 23015KT 10/02 A2986 RMK A01 T01040022  RH  057%=      5-min Rain = 0
KWE2 181517Z 23014KT 10/02 A2986 RMK A01 T01040023  RH  057%=      5-min Rain = 0
KWE2 181518Z 23016KT 10/02 A2985 RMK A01 T01040023  RH  057%=      5-min Rain = 0
KWE2 181519Z 23015KT 11/02 A2986 RMK A01 T01050023  RH  057%=      5-min Rain = 0
KWE2 181520Z 23014KT 11/02 A2985 RMK A01 T01050023  RH  057%=      5-min Rain = 0
KWE2 181521Z 23015KT 11/02 A2985 RMK A01 T01060023  RH  057%=      5-min Rain = 0
KWE2 181522Z 22014KT 11/02 A2985 RMK A01 T01070023  RH  056%=      5-min Rain = 0
KWE2 181523Z 22014KT 11/02 A2985 RMK A01 T01070024  RH  056%=      5-min Rain = 0
KWE2 181524Z 23013KT 11/02 A2985 RMK A01 T01080023  RH  056%=      5-min Rain = 0
KWE2 181525Z 22014KT 11/02 A2985 RMK A01 T01080023  RH  056%=      5-min Rain = 0
KWE2 181526Z 23013KT 11/02 A2985 RMK A01 T01090024  RH  056%=      5-min Rain = 0
KWE2 181527Z 23013KT 11/02 A2985 RMK A01 T01100024  RH  056%=      5-min Rain = 0
KWE2 181528Z 23014KT 11/03 A2985 RMK A01 T01110025  RH  055%=      5-min Rain = 0
KWE2 181529Z 23014KT 11/02 A2985 RMK A01 T01120024  RH  055%=      5-min Rain = 0
KWE2 181530Z 23015KT 11/02 A2985 RMK A01 T01120024  RH  055%=      5-min Rain = 0
KWE2 181531Z 23015KT 11/02 A2985 RMK A01 T01120024  RH  054%=      5-min Rain = 0
KWE2 181532Z 23015G20KT 11/02 A2985 RMK A01 T01130023  RH  054%=      5-min Rain = 0
KWE2 181533Z 23014KT 12/02 A2985 RMK A01 T01150024  RH  053%=      5-min Rain = 0
KWE2 181534Z 23015KT 12/02 A2985 RMK A01 T01160024  RH  053%=      5-min Rain = 0
KWE2 181535Z 24014KT 12/02 A2985 RMK A01 T01160024  RH  053%=      5-min Rain = 0
KWE2 181536Z 23012KT 12/02 A2985 RMK A01 T01160024  RH  053%=      5-min Rain = 0
KWE2 181537Z 23013KT 12/03 A2985 RMK A01 T01170025  RH  053%=      5-min Rain = 0
KWE2 181538Z 24013KT 12/03 A2986 RMK A01 T01190026  RH  053%=      5-min Rain = 0
KWE2 181539Z 23014KT 12/03 A2986 RMK A01 T01200025  RH  052%=      5-min Rain = 0
KWE2 181540Z 24016KT 12/02 A2985 RMK A01 T01210024  RH  051%=      5-min Rain = 0
KWE2 181541Z 24016KT 12/02 A2985 RMK A01 T01210023  RH  051%=      5-min Rain = 0
KWE2 181542Z 24017KT 12/02 A2985 RMK A01 T01220024  RH  051%=      5-min Rain = 0
KWE2 181543Z 24015KT 12/02 A2986 RMK A01 T01230023  RH  050%=      5-min Rain = 0
KWE2 181544Z 24014KT 12/02 A2986 RMK A01 T01240024  RH  050%=      5-min Rain = 0
KWE2 181545Z 24013KT 13/02 A2985 RMK A01 T01250024  RH  050%=      5-min Rain = 0
KWE2 181546Z 23012KT 13/03 A2985 RMK A01 T01260025  RH  050%=      5-min Rain = 0
KWE2 181547Z 23014KT 13/03 A2985 RMK A01 T01270025  RH  050%=      5-min Rain = 0
KWE2 181548Z 24015KT 13/03 A2985 RMK A01 T01270025  RH  050%=      5-min Rain = 0
KWE2 181549Z 24014KT 13/02 A2985 RMK A01 T01270024  RH  049%=      5-min Rain = 0
KWE2 181550Z 23013KT 13/03 A2985 RMK A01 T01280025  RH  050%=      5-min Rain = 0
KWE2 181551Z 24011KT 13/03 A2985 RMK A01 T01290026  RH  050%=      5-min Rain = 0
KWE2 181552Z 24013KT 13/03 A2985 RMK A01 T01310026  RH  049%=      5-min Rain = 0
KWE2 181553Z 24012KT 13/03 A2985 RMK A01 T01320027  RH  049%=      5-min Rain = 0
KWE2 181554Z 24011KT 13/03 A2985 RMK A01 T01340027  RH  048%=      5-min Rain = 0
KWE2 181555Z 23011KT 14/03 A2985 RMK A01 T01360028  RH  048%=      5-min Rain = 0
KWE2 181556Z 23013G18KT 14/03 A2985 RMK A01 T01380028  RH  048%=      5-min Rain = 0
KWE2 181557Z 23014KT 14/03 A2985 RMK A01 T01390027  RH  046%=      5-min Rain = 0
KWE2 181558Z 24018KT 14/03 A2985 RMK A01 T01400025  RH  046%=      5-min Rain = 0
KWE2 181559Z 24017KT 14/02 A2985 RMK A01 T01420023  RH  045%=      5-min Rain = 0
KWE2 181600Z 24017KT 14/02 A2985 RMK A01 T01430024  RH  044%=      5-min Rain = 0
KWE2 181601Z 23014KT 14/03 A2985 RMK A01 T01440025  RH  044%=      5-min Rain = 0
KWE2 181602Z 24016KT 15/02 A2985 RMK A01 T01460024  RH  044%=      5-min Rain = 0
KWE2 181603Z 24020KT 15/02 A2985 RMK A01 T01470022  RH  043%=      5-min Rain = 0
KWE2 181604Z 23017KT 15/02 A2985 RMK A01 T01480022  RH  043%=      5-min Rain = 0
KWE2 181605Z 24015KT 15/02 A2985 RMK A01 T01490023  RH  042%=      5-min Rain = 0
KWE2 181606Z 24017KT 15/02 A2985 RMK A01 T01510024  RH  042%=      5-min Rain = 0
KWE2 181607Z 24018KT 15/02 A2985 RMK A01 T01520023  RH  042%=      5-min Rain = 0
KWE2 181608Z 24017KT 15/02 A2985 RMK A01 T01520022  RH  041%=      5-min Rain = 0
KWE2 181609Z 24016G22KT 15/02 A2985 RMK A01 T01540023  RH  041%=      5-min Rain = 0
KWE2 181610Z 24018KT 16/02 A2985 RMK A01 T01550022  RH  041%=      5-min Rain = 0
KWE2 181611Z 24016KT 16/02 A2985 RMK A01 T01560022  RH  041%=      5-min Rain = 0
KWE2 181612Z 24015KT 16/02 A2985 RMK A01 T01570023  RH  040%=      5-min Rain = 0
KWE2 181613Z 24016G21KT 16/02 A2985 RMK A01 T01580023  RH  040%=      5-min Rain = 0
KWE2 181614Z 24017KT 16/02 A2985 RMK A01 T01600022  RH  039%=      5-min Rain = 0
KWE2 181615Z 25015KT 16/02 A2985 RMK A01 T01600022  RH  039%=      5-min Rain = 0
KWE2 181616Z 24015KT 16/02 A2985 RMK A01 T01620022  RH  039%=      5-min Rain = 0
KWE2 181617Z 25017KT 16/02 A2985 RMK A01 T01630023  RH  039%=      5-min Rain = 0
KWE2 181618Z 25018G23KT 17/02 A2985 RMK A01 T01650022  RH  038%=      5-min Rain = 0
KWE2 181619Z 25020G25KT 17/02 A2985 RMK A01 T01670020  RH  037%=      5-min Rain = 0
KWE2 181620Z 24016KT 17/02 A2985 RMK A01 T01690021  RH  037%=      5-min Rain = 0
KWE2 181621Z 25022G27KT 17/02 A2985 RMK A01 T01710020  RH  036%=      5-min Rain = 0
KWE2 181622Z 25021G27KT 17/02 A2985 RMK A01 T01720017  RH  035%=      5-min Rain = 0
KWE2 181623Z 25021G26KT 17/02 A2985 RMK A01 T01740015  RH  034%=      5-min Rain = 0
KWE2 181624Z 25018KT 18/02 A2985 RMK A01 T01750016  RH  034%=      5-min Rain = 0
KWE2 181625Z 26021G28KT 18/02 A2985 RMK A01 T01770016  RH  034%=      5-min Rain = 0
KWE2 181626Z 25024G30KT 18/01 A2985 RMK A01 T01780013  RH  033%=      5-min Rain = 0
KWE2 181627Z 25025KT 18/01 A2984 RMK A01 T01780012  RH  033%=      5-min Rain = 0
KWE2 181628Z 25023G31KT 18/01 A2985 RMK A01 T01790012  RH  033%=      5-min Rain = 0
KWE2 181629Z 25026KT 18/01 A2985 RMK A01 T01800011  RH  032%=      5-min Rain = 0
KWE2 181630Z 26024G29KT 18/01 A2985 RMK A01 T01800011  RH  032%=      5-min Rain = 0
KWE2 181631Z 25022G27KT 18/01 A2985 RMK A01 T01810012  RH  032%=      5-min Rain = 0
KWE2 181632Z 25027G33KT 18/01 A2984 RMK A01 T01830012  RH  032%=      5-min Rain = 0
KWE2 181633Z 26030G40KT 18/01 A2984 RMK A01 T01840011  RH  031%=      5-min Rain = 0
KWE2 181634Z 26035KT 19/01 A2984 RMK A01 T01850011  RH  031%=      5-min Rain = 0
KWE2 181635Z 26028G36KT 19/01 A2984 RMK A01 T01850010  RH  031%=      5-min Rain = 0
KWE2 181636Z 25030G36KT 19/01 A2984 RMK A01 T01860010  RH  031%=      5-min Rain = 0
KWE2 181637Z 26031G38KT 19/01 A2984 RMK A01 T01870010  RH  031%=      5-min Rain = 0
KWE2 181638Z 26034G41KT 19/01 A2984 RMK A01 T01870009  RH  030%=      5-min Rain = 0
KWE2 181639Z 26035KT 19/01 A2984 RMK A01 T01870008  RH  030%=      5-min Rain = 0
KWE2 181640Z 26034KT 19/01 A2984 RMK A01 T01860007  RH  030%=      5-min Rain = 0
KWE2 181641Z 26032G39KT 19/01 A2984 RMK A01 T01860009  RH  030%=      5-min Rain = 0
KWE2 181642Z 26033G40KT 19/01 A2984 RMK A01 T01870009  RH  030%=      5-min Rain = 0
KWE2 181643Z 26030G35KT 19/01 A2984 RMK A01 T01870009  RH  030%=      5-min Rain = 0
KWE2 181644Z 25030G37KT 19/01 A2984 RMK A01 T01880010  RH  030%=      5-min Rain = 0
KWE2 181645Z 26032G37KT 19/01 A2984 RMK A01 T01880010  RH  030%=      5-min Rain = 0
KWE2 181646Z 26036G44KT 19/01 A2984 RMK A01 T01880009  RH  030%=      5-min Rain = 0
KWE2 181647Z 26035G41KT 19/01 A2984 RMK A01 T01870007  RH  030%=      5-min Rain = 0
KWE2 181648Z 26032G40KT 19/01 A2984 RMK A01 T01870008  RH  030%=      5-min Rain = 0
KWE2 181649Z 26026KT 19/01 A2984 RMK A01 T01870009  RH  030%=      5-min Rain = 0
KWE2 181650Z 26033G41KT 19/01 A2984 RMK A01 T01880009  RH  030%=      5-min Rain = 0
KWE2 181651Z 25027KT 19/01 A2984 RMK A01 T01880009  RH  030%=      5-min Rain = 0
KWE2 181652Z 25033G38KT 19/01 A2984 RMK A01 T01890009  RH  030%=      5-min Rain = 0
KWE2 181653Z 25032G37KT 19/01 A2984 RMK A01 T01890009  RH  030%=      5-min Rain = 0
KWE2 181654Z 26028G33KT 19/01 A2984 RMK A01 T01890009  RH  030%=      5-min Rain = 0
KWE2 181655Z 26029G34KT 19/01 A2984 RMK A01 T01890009  RH  030%=      5-min Rain = 0
KWE2 181656Z 26027G35KT 19/01 A2984 RMK A01 T01900010  RH  030%=      5-min Rain = 0
KWE2 181657Z 25031G36KT 19/01 A2984 RMK A01 T01900011  RH  030%=      5-min Rain = 0
KWE2 181658Z 26034G39KT 19/01 A2984 RMK A01 T01900011  RH  030%=      5-min Rain = 0
KWE2 181659Z 26032KT 19/01 A2984 RMK A01 T01880010  RH  030%=      5-min Rain = 0
KWE2 181700Z 25030KT 19/01 A2985 RMK A01 T01880011  RH  031%=      5-min Rain = 0
KWE2 181701Z 26032G37KT 19/01 A2984 RMK A01 T01880010  RH  030%=      5-min Rain = 0
KWE2 181702Z 26031G36KT 19/01 A2984 RMK A01 T01880010  RH  030%=      5-min Rain = 0
KWE2 181703Z 26030G37KT 19/01 A2984 RMK A01 T01880010  RH  030%=      5-min Rain = 0
KWE2 181704Z 26030KT 19/01 A2984 RMK A01 T01890010  RH  030%=      5-min Rain = 0
KWE2 181705Z 26028KT 19/01 A2984 RMK A01 T01890010  RH  030%=      5-min Rain = 0
KWE2 181706Z 26029G34KT 19/01 A2984 RMK A01 T01890010  RH  030%=      5-min Rain = 0
KWE2 181707Z 26027KT 19/01 A2984 RMK A01 T01890011  RH  030%=      5-min Rain = 0
KWE2 181708Z 26027KT 19/01 A2984 RMK A01 T01890011  RH  030%=      5-min Rain = 0
KWE2 181709Z 26023G29KT 19/01 A2984 RMK A01 T01900013  RH  031%=      5-min Rain = 0
KWE2 181710Z 25025G32KT 19/01 A2984 RMK A01 T01910013  RH  030%=      5-min Rain = 0
KWE2 181711Z 25027G32KT 19/01 A2984 RMK A01 T01910012  RH  030%=      5-min Rain = 0
KWE2 181712Z 26028KT 19/01 A2984 RMK A01 T01910012  RH  030%=      5-min Rain = 0
KWE2 181713Z 26026G35KT 19/01 A2984 RMK A01 T01900012  RH  030%=      5-min Rain = 0
KWE2 181714Z 25027KT 19/01 A2984 RMK A01 T01900012  RH  030%=      5-min Rain = 0
KWE2 181715Z 25030G36KT 19/01 A2984 RMK A01 T01900012  RH  030%=      5-min Rain = 0
KWE2 181716Z 25025G35KT 19/01 A2984 RMK A01 T01890012  RH  031%=      5-min Rain = 0
KWE2 181717Z 25027G33KT 19/01 A2984 RMK A01 T01900014  RH  031%=      5-min Rain = 0
KWE2 181718Z 26026KT 19/01 A2984 RMK A01 T01920013  RH  030%=      5-min Rain = 0
KWE2 181719Z 26022G27KT 19/01 A2984 RMK A01 T01910014  RH  030%=      5-min Rain = 0
KWE2 181720Z 26024G29KT 19/02 A2984 RMK A01 T01940015  RH  030%=      5-min Rain = 0
KWE2 181721Z 26029G34KT 19/01 A2984 RMK A01 T01940013  RH  030%=      5-min Rain = 0
KWE2 181722Z 26025KT 19/01 A2984 RMK A01 T01930013  RH  030%=      5-min Rain = 0
KWE2 181723Z 26029KT 19/01 A2984 RMK A01 T01920013  RH  030%=      5-min Rain = 0
KWE2 181724Z 26028KT 19/01 A2984 RMK A01 T01920013  RH  030%=      5-min Rain = 0
KWE2 181725Z 26026G32KT 19/01 A2983 RMK A01 T01910013  RH  030%=      5-min Rain = 0
KWE2 181726Z 26027KT 19/01 A2983 RMK A01 T01900013  RH  030%=      5-min Rain = 0
KWE2 181727Z 26024KT 19/01 A2983 RMK A01 T01880012  RH  031%=      5-min Rain = 0
KWE2 181728Z 26027KT 19/01 A2983 RMK A01 T01890013  RH  031%=      5-min Rain = 0
KWE2 181729Z 26022G27KT 19/01 A2983 RMK A01 T01900014  RH  031%=      5-min Rain = 0
KWE2 181730Z 25024G31KT 19/02 A2983 RMK A01 T01920015  RH  031%=      5-min Rain = 0
KWE2 181731Z 26024KT 19/01 A2983 RMK A01 T01930014  RH  030%=      5-min Rain = 0
KWE2 181732Z 26023G31KT 19/02 A2983 RMK A01 T01930015  RH  030%=      5-min Rain = 0
KWE2 181733Z 26024G29KT 20/02 A2983 RMK A01 T01950016  RH  030%=      5-min Rain = 0
KWE2 181734Z 25028KT 20/02 A2983 RMK A01 T01960016  RH  030%=      5-min Rain = 0
KWE2 181735Z 25025G30KT 20/02 A2983 RMK A01 T01950015  RH  030%=      5-min Rain = 0
KWE2 181736Z 26024G29KT 20/02 A2983 RMK A01 T01950016  RH  030%=      5-min Rain = 0
KWE2 181737Z 26025KT 20/02 A2983 RMK A01 T01950016  RH  030%=      5-min Rain = 0
KWE2 181738Z 25025G30KT 20/02 A2983 RMK A01 T01950015  RH  030%=      5-min Rain = 0
KWE2 181739Z 24025KT 20/02 A2983 RMK A01 T01950015  RH  030%=      5-min Rain = 0
KWE2 181740Z 26025G31KT 20/02 A2983 RMK A01 T01960017  RH  030%=      5-min Rain = 0
KWE2 181741Z 25030G35KT 20/02 A2983 RMK A01 T01980015  RH  030%=      5-min Rain = 0
KWE2 181742Z 25029G35KT 20/02 A2983 RMK A01 T01970015  RH  030%=      5-min Rain = 0
KWE2 181743Z 26027G32KT 20/01 A2983 RMK A01 T01960014  RH  030%=      5-min Rain = 0
KWE2 181744Z 25026G31KT 20/02 A2983 RMK A01 T01960015  RH  030%=      5-min Rain = 0
KWE2 181745Z 26027KT 20/01 A2983 RMK A01 T01950014  RH  030%=      5-min Rain = 0
KWE2 181746Z 26027KT 19/01 A2983 RMK A01 T01920013  RH  030%=      5-min Rain = 0
KWE2 181747Z 26024KT 19/01 A2983 RMK A01 T01900013  RH  031%=      5-min Rain = 0
KWE2 181748Z 26023G29KT 19/01 A2983 RMK A01 T01900014  RH  031%=      5-min Rain = 0
KWE2 181749Z 25028KT 19/01 A2983 RMK A01 T01920014  RH  030%=      5-min Rain = 0
KWE2 181750Z 25028KT 19/01 A2982 RMK A01 T01910013  RH  030%=      5-min Rain = 0
KWE2 181751Z 26026G31KT 19/01 A2982 RMK A01 T01900013  RH  031%=      5-min Rain = 0
KWE2 181752Z 26022G28KT 19/01 A2983 RMK A01 T01900014  RH  031%=      5-min Rain = 0
KWE2 181753Z 26027KT 19/01 A2982 RMK A01 T01900014  RH  031%=      5-min Rain = 0
KWE2 181754Z 26029KT 19/01 A2982 RMK A01 T01900013  RH  031%=      5-min Rain = 0
KWE2 181755Z 26026KT 19/01 A2983 RMK A01 T01900013  RH  031%=      5-min Rain = 0
KWE2 181756Z 27026KT 19/01 A2982 RMK A01 T01900014  RH  031%=      5-min Rain = 0
KWE2 181757Z 26027KT 19/01 A2982 RMK A01 T01900014  RH  031%=      5-min Rain = 0
KWE2 181758Z 26027G33KT 19/01 A2983 RMK A01 T01910014  RH  031%=      5-min Rain = 0
KWE2 181759Z 26026G33KT 19/01 A2982 RMK A01 T01910013  RH  030%=      5-min Rain = 0
KWE2 181800Z 26023G29KT 19/02 A2983 RMK A01 T01930015  RH  030%=      5-min Rain = 0
KWE2 181801Z 26024G29KT 19/01 A2982 RMK A01 T01940014  RH  030%=      5-min Rain = 0
KWE2 181802Z 26024G29KT 19/01 A2982 RMK A01 T01940013  RH  030%=      5-min Rain = 0
KWE2 181803Z 26023G28KT 19/01 A2982 RMK A01 T01920013  RH  030%=      5-min Rain = 0
KWE2 181804Z 27024G29KT 19/01 A2982 RMK A01 T01920013  RH  030%=      5-min Rain = 0
KWE2 181805Z 27029G36KT 19/01 A2982 RMK A01 T01920014  RH  030%=      5-min Rain = 0
KWE2 181806Z 27027G32KT 19/01 A2982 RMK A01 T01910013  RH  030%=      5-min Rain = 0
KWE2 181807Z 26024G33KT 19/01 A2982 RMK A01 T01900013  RH  031%=      5-min Rain = 0
KWE2 181808Z 26024G32KT 19/01 A2982 RMK A01 T01880012  RH  031%=      5-min Rain = 0
KWE2 181809Z 26025KT 19/01 A2982 RMK A01 T01880013  RH  031%=      5-min Rain = 0
KWE2 181810Z 26021KT 19/01 A2982 RMK A01 T01880013  RH  031%=      5-min Rain = 0
KWE2 181811Z 26024KT 19/01 A2982 RMK A01 T01880014  RH  031%=      5-min Rain = 0
KWE2 181812Z 27022G29KT 19/01 A2982 RMK A01 T01880014  RH  031%=      5-min Rain = 0
KWE2 181813Z 27023KT 19/01 A2982 RMK A01 T01880014  RH  031%=      5-min Rain = 0
KWE2 181814Z 26020KT 19/02 A2982 RMK A01 T01890015  RH  031%=      5-min Rain = 0
KWE2 181815Z 26023KT 19/02 A2981 RMK A01 T01890015  RH  031%=      5-min Rain = 0
KWE2 181816Z 26026KT 19/02 A2981 RMK A01 T01890015  RH  031%=      5-min Rain = 0
KWE2 181817Z 26025G30KT 19/02 A2981 RMK A01 T01890015  RH  031%=      5-min Rain = 0
KWE2 181818Z 26025G30KT 19/02 A2981 RMK A01 T01880015  RH  031%=      5-min Rain = 0
KWE2 181819Z 26024G31KT 19/02 A2981 RMK A01 T01880015  RH  031%=      5-min Rain = 0
KWE2 181820Z 26026G31KT 19/02 A2981 RMK A01 T01880015  RH  031%=      5-min Rain = 0
KWE2 181821Z 27026G31KT 19/01 A2981 RMK A01 T01890014  RH  031%=      5-min Rain = 0
KWE2 181822Z 26024KT 19/01 A2981 RMK A01 T01880013  RH  031%=      5-min Rain = 0
KWE2 181823Z 27026KT 19/01 A298 RMK A01 T01880013  RH  031%=      5-min Rain = 0
KWE2 181824Z 26025KT 19/01 A298 RMK A01 T01880013  RH  031%=      5-min Rain = 0
KWE2 181825Z 26026G31KT 19/01 A298 RMK A01 T01880014  RH  031%=      5-min Rain = 0
KWE2 181826Z 26025KT 19/01 A2981 RMK A01 T01880013  RH  031%=      5-min Rain = 0
KWE2 181827Z 26027G32KT 19/01 A2981 RMK A01 T01880013  RH  031%=      5-min Rain = 0
KWE2 181828Z 26025KT 19/01 A2981 RMK A01 T01870013  RH  031%=      5-min Rain = 0
KWE2 181829Z 26025G30KT 19/01 A2981 RMK A01 T01870013  RH  031%=      5-min Rain = 0
KWE2 181830Z 26024KT 19/01 A2981 RMK A01 T01870014  RH  031%=      5-min Rain = 0
KWE2 181831Z 26027KT 19/01 A2981 RMK A01 T01870014  RH  031%=      5-min Rain = 0
KWE2 181832Z 26027KT 19/01 A2981 RMK A01 T01870014  RH  031%=      5-min Rain = 0
KWE2 181833Z 26027G32KT 19/01 A2981 RMK A01 T01870014  RH  031%=      5-min Rain = 0
KWE2 181834Z 26024KT 19/01 A2981 RMK A01 T01870014  RH  031%=      5-min Rain = 0
KWE2 181835Z 26022G27KT 19/02 A2981 RMK A01 T01870015  RH  032%=      5-min Rain = 0
KWE2 181836Z 26025G31KT 19/02 A2981 RMK A01 T01870015  RH  032%=      5-min Rain = 0
KWE2 181837Z 26022KT 19/02 A2981 RMK A01 T01860015  RH  032%=      5-min Rain = 0
KWE2 181838Z 26026KT 19/02 A298 RMK A01 T01860015  RH  032%=      5-min Rain = 0
KWE2 181839Z 26024G30KT 19/01 A298 RMK A01 T01860014  RH  032%=      5-min Rain = 0
KWE2 181840Z 26026KT 19/01 A298 RMK A01 T01860014  RH  032%=      5-min Rain = 0
KWE2 181841Z 27028G35KT 19/01 A298 RMK A01 T01860014  RH  032%=      5-min Rain = 0
KWE2 181842Z 27026KT 19/01 A298 RMK A01 T01860014  RH  031%=      5-min Rain = 0
KWE2 181843Z 27023G28KT 19/01 A298 RMK A01 T01860014  RH  031%=      5-min Rain = 0
KWE2 181844Z 26025G30KT 19/01 A298 RMK A01 T01860014  RH  031%=      5-min Rain = 0
KWE2 181845Z 26027KT 19/01 A298 RMK A01 T01860014  RH  031%=      5-min Rain = 0
KWE2 181846Z 26026KT 19/01 A298 RMK A01 T01870014  RH  031%=      5-min Rain = 0
KWE2 181847Z 27025G31KT 19/01 A298 RMK A01 T01870014  RH  031%=      5-min Rain = 0
KWE2 181848Z 26028KT 19/01 A2979 RMK A01 T01870014  RH  031%=      5-min Rain = 0
KWE2 181849Z 26027G33KT 19/01 A2979 RMK A01 T01870014  RH  031%=      5-min Rain = 0
KWE2 181850Z 27025KT 19/01 A2979 RMK A01 T01880014  RH  031%=      5-min Rain = 0
KWE2 181851Z 27023KT 19/01 A2979 RMK A01 T01880014  RH  031%=      5-min Rain = 0
KWE2 181852Z 27028KT 19/01 A2979 RMK A01 T01880014  RH  031%=      5-min Rain = 0
KWE2 181853Z 27024KT 19/01 A2979 RMK A01 T01880014  RH  031%=      5-min Rain = 0
KWE2 181854Z 27024G29KT 19/01 A2979 RMK A01 T01870014  RH  031%=      5-min Rain = 0
KWE2 181855Z 27020KT 19/02 A2979 RMK A01 T01880015  RH  031%=      5-min Rain = 0
KWE2 181856Z 26025KT 19/02 A2978 RMK A01 T01890016  RH  031%=      5-min Rain = 0
KWE2 181857Z 26026KT 19/02 A2978 RMK A01 T01890015  RH  031%=      5-min Rain = 0
KWE2 181858Z 26025KT 19/02 A2978 RMK A01 T01890015  RH  031%=      5-min Rain = 0
KWE2 181859Z 27022G29KT 19/02 A2978 RMK A01 T01890016  RH  031%=      5-min Rain = 0
KWE2 181900Z 27022KT 19/02 A2978 RMK A01 T01900016  RH  031%=      5-min Rain = 0
KWE2 181901Z 26023G28KT 19/02 A2978 RMK A01 T01910017  RH  031%=      5-min Rain = 0
KWE2 181902Z 27023G30KT 19/02 A2978 RMK A01 T01900016  RH  031%=      5-min Rain = 0
KWE2 181903Z 27026KT 19/02 A2978 RMK A01 T01910016  RH  031%=      5-min Rain = 0
KWE2 181904Z 27026G32KT 19/02 A2978 RMK A01 T01910016  RH  031%=      5-min Rain = 0
KWE2 181905Z 27026KT 19/02 A2978 RMK A01 T01900016  RH  031%=      5-min Rain = 0
KWE2 181906Z 27024KT 19/02 A2977 RMK A01 T01900016  RH  031%=      5-min Rain = 0
KWE2 181907Z 27026KT 19/02 A2977 RMK A01 T01910016  RH  031%=      5-min Rain = 0
KWE2 181908Z 27023KT 19/02 A2977 RMK A01 T01910015  RH  031%=      5-min Rain = 0
KWE2 181909Z 28026KT 19/02 A2977 RMK A01 T01910015  RH  031%=      5-min Rain = 0
KWE2 181910Z 27026KT 19/02 A2977 RMK A01 T01920015  RH  031%=      5-min Rain = 0
KWE2 181911Z 27024KT 19/02 A2977 RMK A01 T01910016  RH  031%=      5-min Rain = 0
KWE2 181912Z 27020G25KT 19/02 A2977 RMK A01 T01920016  RH  031%=      5-min Rain = 0
KWE2 181913Z 27020G27KT 19/02 A2977 RMK A01 T01930018  RH  031%=      5-min Rain = 0
KWE2 181914Z 26023G29KT 20/02 A2977 RMK A01 T01950017  RH  030%=      5-min Rain = 0
KWE2 181915Z 27022G28KT 20/02 A2977 RMK A01 T01970017  RH  030%=      5-min Rain = 0
KWE2 181916Z 27024KT 20/02 A2977 RMK A01 T01980017  RH  030%=      5-min Rain = 0
KWE2 181917Z 27024KT 20/02 A2976 RMK A01 T01970016  RH  030%=      5-min Rain = 0
KWE2 181918Z 27024KT 20/02 A2977 RMK A01 T01960015  RH  030%=      5-min Rain = 0
KWE2 181919Z 27021G26KT 20/02 A2976 RMK A01 T01960016  RH  030%=      5-min Rain = 0
KWE2 181920Z 27020KT 20/02 A2976 RMK A01 T01970018  RH  030%=      5-min Rain = 0
KWE2 181921Z 28021KT 20/02 A2976 RMK A01 T01990018  RH  030%=      5-min Rain = 0
KWE2 181922Z 27023G29KT 20/02 A2976 RMK A01 T02010017  RH  029%=      5-min Rain = 0
KWE2 181923Z 27024KT 20/01 A2976 RMK A01 T02010014  RH  029%=      5-min Rain = 0
KWE2 181924Z 28025KT 20/01 A2976 RMK A01 T02010014  RH  029%=      5-min Rain = 0
KWE2 181925Z 28027KT 20/01 A2976 RMK A01 T02020010  RH  028%=      5-min Rain = 0
KWE2 181926Z 28022KT 20/01 A2976 RMK A01 T02000007  RH  028%=      5-min Rain = 0
KWE2 181927Z 28025G30KT 20/01 A2976 RMK A01 T01990007  RH  028%=      5-min Rain = 0
KWE2 181928Z 27024KT 20/01 A2976 RMK A01 T01990008  RH  028%=      5-min Rain = 0
KWE2 181929Z 27027G33KT 20/01 A2976 RMK A01 T02000008  RH  028%=      5-min Rain = 0
KWE2 181930Z 27026G31KT 20/01 A2976 RMK A01 T02000008  RH  028%=      5-min Rain = 0
KWE2 181931Z 28024KT 20/01 A2975 RMK A01 T02000008  RH  028%=      5-min Rain = 0
KWE2 181932Z 28025G30KT 20/01 A2975 RMK A01 T02000008  RH  028%=      5-min Rain = 0
KWE2 181933Z 28026G31KT 20/01 A2975 RMK A01 T01990008  RH  028%=      5-min Rain = 0
KWE2 181934Z 27028KT 20/01 A2975 RMK A01 T01990009  RH  028%=      5-min Rain = 0
KWE2 181935Z 27027G32KT 20/01 A2975 RMK A01 T02000008  RH  028%=      5-min Rain = 0
KWE2 181936Z 27029KT 20/01 A2975 RMK A01 T02000007  RH  028%=      5-min Rain = 0
KWE2 181937Z 27027G33KT 20/01 A2975 RMK A01 T02010008  RH  027%=      5-min Rain = 0
KWE2 181938Z 28029KT 20/01 A2975 RMK A01 T02020008  RH  027%=      5-min Rain = 0
KWE2 181939Z 28027KT 20/01 A2974 RMK A01 T02020008  RH  027%=      5-min Rain = 0
KWE2 181940Z 27026KT 20/01 A2974 RMK A01 T02020009  RH  028%=      5-min Rain = 0
KWE2 181941Z 27027KT 20/01 A2974 RMK A01 T02030010  RH  028%=      5-min Rain = 0
KWE2 181942Z 28026KT 20/01 A2974 RMK A01 T02030010  RH  027%=      5-min Rain = 0
KWE2 181943Z 28026KT 20/01 A2974 RMK A01 T02020009  RH  028%=      5-min Rain = 0
KWE2 181944Z 28028KT 20/01 A2974 RMK A01 T02030010  RH  028%=      5-min Rain = 0
KWE2 181945Z 28030KT 20/01 A2974 RMK A01 T02030009  RH  027%=      5-min Rain = 0
KWE2 181946Z 28025G30KT 20/01 A2974 RMK A01 T02020009  RH  028%=      5-min Rain = 0
KWE2 181947Z 29025KT 20/01 A2974 RMK A01 T02020010  RH  028%=      5-min Rain = 0
KWE2 181948Z 28025KT 20/01 A2974 RMK A01 T02030009  RH  027%=      5-min Rain = 0
KWE2 181949Z 27025G30KT 20/01 A2974 RMK A01 T02040009  RH  027%=      5-min Rain = 0
KWE2 181950Z 27025KT 20/01 A2974 RMK A01 T02040008  RH  027%=      5-min Rain = 0
KWE2 181951Z 28024G29KT 21/01 A2974 RMK A01 T02050009  RH  027%=      5-min Rain = 0
KWE2 181952Z 28026KT 21/01 A2973 RMK A01 T02050008  RH  027%=      5-min Rain = 0
KWE2 181953Z 28025G32KT 20/01 A2973 RMK A01 T02030008  RH  027%=      5-min Rain = 0
KWE2 181954Z 27024KT 21/01 A2973 RMK A01 T02050009  RH  027%=      5-min Rain = 0
KWE2 181955Z 27026G31KT 21/01 A2973 RMK A01 T02060008  RH  027%=      5-min Rain = 0
KWE2 181956Z 27027KT 21/01 A2973 RMK A01 T02050008  RH  027%=      5-min Rain = 0
KWE2 181957Z 27027G32KT 20/01 A2973 RMK A01 T02030007  RH  027%=      5-min Rain = 0
KWE2 181958Z 26029G34KT 20/01 A2973 RMK A01 T02030007  RH  027%=      5-min Rain = 0
KWE2 181959Z 27029G34KT 20/01 A2973 RMK A01 T02040006  RH  027%=      5-min Rain = 0
KWE2 182000Z 27026G33KT 20/01 A2973 RMK A01 T02040007  RH  027%=      5-min Rain = 0
KWE2 182001Z 27028G35KT 21/01 A2973 RMK A01 T02050008  RH  027%=      5-min Rain = 0
KWE2 182002Z 26029G35KT 20/01 A2973 RMK A01 T02040008  RH  027%=      5-min Rain = 0
KWE2 182003Z 27025G31KT 20/01 A2973 RMK A01 T02030008  RH  027%=      5-min Rain = 0
KWE2 182004Z 28022KT 20/01 A2973 RMK A01 T02030009  RH  027%=      5-min Rain = 0
KWE2 182005Z 28025KT 21/01 A2973 RMK A01 T02050009  RH  027%=      5-min Rain = 0
KWE2 182006Z 29025KT 21/01 A2972 RMK A01 T02050008  RH  027%=      5-min Rain = 0
KWE2 182007Z 29026KT 21/01 A2973 RMK A01 T02060009  RH  027%=      5-min Rain = 0
KWE2 182008Z 28029G38KT 21/01 A2973 RMK A01 T02070009  RH  027%=      5-min Rain = 0
KWE2 182009Z 27022G27KT 21/01 A2973 RMK A01 T02080009  RH  027%=      5-min Rain = 0
KWE2 182010Z 28025G30KT 21/01 A2973 RMK A01 T02100009  RH  026%=      5-min Rain = 0
KWE2 182011Z 29028KT 21/01 A2973 RMK A01 T02100009  RH  026%=      5-min Rain = 0
KWE2 182012Z 28025G30KT 21/01 A2973 RMK A01 T02080008  RH  026%=      5-min Rain = 0
KWE2 182013Z 28023G29KT 21/01 A2973 RMK A01 T02070008  RH  027%=      5-min Rain = 0
KWE2 182014Z 27025KT 21/01 A2973 RMK A01 T02080009  RH  027%=      5-min Rain = 0
KWE2 182015Z 28026KT 21/01 A2973 RMK A01 T02110010  RH  026%=      5-min Rain = 0
KWE2 182016Z 28030KT 21/01 A2972 RMK A01 T02110009  RH  026%=      5-min Rain = 0
KWE2 182017Z 28028G33KT 21/01 A2972 RMK A01 T02090010  RH  026%=      5-min Rain = 0
KWE2 182018Z 28031KT 21/01 A2972 RMK A01 T02100009  RH  026%=      5-min Rain = 0
KWE2 182019Z 28027KT 21/01 A2973 RMK A01 T02080008  RH  026%=      5-min Rain = 0
KWE2 182020Z 29028G34KT 21/01 A2972 RMK A01 T02070009  RH  027%=      5-min Rain = 0
KWE2 182021Z 28029KT 21/01 A2973 RMK A01 T02080012  RH  027%=      5-min Rain = 0
KWE2 182022Z 29026KT 21/01 A2973 RMK A01 T02100013  RH  027%=      5-min Rain = 0
KWE2 182023Z 29024KT 21/01 A2973 RMK A01 T02100013  RH  027%=      5-min Rain = 0
KWE2 182024Z 30026KT 21/01 A2973 RMK A01 T02090013  RH  027%=      5-min Rain = 0
KWE2 182025Z 30027KT 21/01 A2972 RMK A01 T02080011  RH  027%=      5-min Rain = 0
KWE2 182026Z 30027G32KT 21/01 A2972 RMK A01 T02050012  RH  028%=      5-min Rain = 0
KWE2 182027Z 30029G36KT 20/01 A2972 RMK A01 T02040012  RH  028%=      5-min Rain = 0
KWE2 182028Z 30029G35KT 20/01 A2972 RMK A01 T02030013  RH  028%=      5-min Rain = 0
KWE2 182029Z 30023G28KT 20/01 A2973 RMK A01 T02010014  RH  029%=      5-min Rain = 0
KWE2 182030Z 30023G29KT 20/02 A2973 RMK A01 T02020015  RH  029%=      5-min Rain = 0
KWE2 182031Z 30022G28KT 20/02 A2973 RMK A01 T02010016  RH  029%=      5-min Rain = 0
KWE2 182032Z 30029KT 20/02 A2973 RMK A01 T01990017  RH  030%=      5-min Rain = 0
KWE2 182033Z 30028KT 19/02 A2973 RMK A01 T01940016  RH  030%=      5-min Rain = 0
KWE2 182034Z 29028G33KT 19/02 A2973 RMK A01 T01920017  RH  031%=      5-min Rain = 0
KWE2 182035Z 30026G33KT 19/02 A2973 RMK A01 T01900017  RH  031%=      5-min Rain = 0
KWE2 182036Z 29021G27KT 19/02 A2973 RMK A01 T01900018  RH  032%=      5-min Rain = 0
KWE2 182037Z 29024KT 19/02 A2973 RMK A01 T01900017  RH  032%=      5-min Rain = 0
KWE2 182038Z 29022G27KT 19/02 A2973 RMK A01 T01880017  RH  032%=      5-min Rain = 0
KWE2 182039Z 29022G28KT 19/02 A2973 RMK A01 T01880019  RH  032%=      5-min Rain = 0
KWE2 182040Z 29025KT 19/02 A2973 RMK A01 T01870019  RH  032%=      5-min Rain = 0
KWE2 182041Z 29024G29KT 19/02 A2973 RMK A01 T01860018  RH  032%=      5-min Rain = 0
KWE2 182042Z 29021KT 19/02 A2973 RMK A01 T01860018  RH  032%=      5-min Rain = 0
KWE2 182043Z 29021KT 19/02 A2973 RMK A01 T01860018  RH  032%=      5-min Rain = 0
KWE2 182044Z 29019KT 19/02 A2973 RMK A01 T01860018  RH  032%=      5-min Rain = 0
KWE2 182045Z 30022KT 19/02 A2973 RMK A01 T01870021  RH  033%=      5-min Rain = 0
KWE2 182046Z 30020KT 19/02 A2973 RMK A01 T01870023  RH  034%=      5-min Rain = 0
KWE2 182047Z 30020KT 19/02 A2973 RMK A01 T01870022  RH  033%=      5-min Rain = 0
KWE2 182048Z 31019KT 19/02 A2973 RMK A01 T01860018  RH  032%=      5-min Rain = 0
KWE2 182049Z 30019KT 19/02 A2973 RMK A01 T01860016  RH  032%=      5-min Rain = 0
KWE2 182050Z 30019KT 19/02 A2973 RMK A01 T01860017  RH  032%=      5-min Rain = 0
KWE2 182051Z 31021G26KT 19/02 A2973 RMK A01 T01870016  RH  032%=      5-min Rain = 0
KWE2 182052Z 30020KT 19/02 A2973 RMK A01 T01880015  RH  032%=      5-min Rain = 0
KWE2 182053Z 30022KT 19/02 A2973 RMK A01 T01880015  RH  031%=      5-min Rain = 0
KWE2 182054Z 30021KT 19/01 A2973 RMK A01 T01870014  RH  031%=      5-min Rain = 0
KWE2 182055Z 30021KT 19/02 A2973 RMK A01 T01870015  RH  032%=      5-min Rain = 0
KWE2 182056Z 30021G26KT 19/02 A2973 RMK A01 T01860015  RH  032%=      5-min Rain = 0
KWE2 182057Z 31020KT 19/01 A2973 RMK A01 T01860014  RH  032%=      5-min Rain = 0
KWE2 182058Z 30020KT 19/02 A2973 RMK A01 T01880015  RH  031%=      5-min Rain = 0
KWE2 182059Z 30018G24KT 19/02 A2973 RMK A01 T01900015  RH  031%=      5-min Rain = 0
KWE2 182100Z 30022KT 19/02 A2973 RMK A01 T01940016  RH  030%=      5-min Rain = 0
KWE2 182101Z 31022KT 20/01 A2973 RMK A01 T01950014  RH  030%=      5-min Rain = 0
KWE2 182102Z 31018KT 19/01 A2973 RMK A01 T01940014  RH  030%=      5-min Rain = 0
KWE2 182103Z 31017KT 19/01 A2973 RMK A01 T01920013  RH  030%=      5-min Rain = 0
KWE2 182104Z 30016G21KT 19/01 A2973 RMK A01 T01920014  RH  030%=      5-min Rain = 0
KWE2 182105Z 31019KT 19/01 A2973 RMK A01 T01930013  RH  030%=      5-min Rain = 0
KWE2 182106Z 31018KT 19/01 A2972 RMK A01 T01930012  RH  030%=      5-min Rain = 0
KWE2 182107Z 31019KT 19/01 A2972 RMK A01 T01910012  RH  030%=      5-min Rain = 0
KWE2 182108Z 31017KT 19/01 A2973 RMK A01 T01890011  RH  030%=      5-min Rain = 0
KWE2 182109Z 31018KT 19/01 A2973 RMK A01 T01880012  RH  031%=      5-min Rain = 0
KWE2 182110Z 31020KT 19/01 A2973 RMK A01 T01880012  RH  031%=      5-min Rain = 0
KWE2 182111Z 30024KT 19/01 A2973 RMK A01 T01880012  RH  031%=      5-min Rain = 0
KWE2 182112Z 30026G34KT 19/01 A2973 RMK A01 T01870014  RH  031%=      5-min Rain = 0
KWE2 182113Z 30023G30KT 18/02 A2974 RMK A01 T01840019  RH  033%=      5-min Rain = 0
KWE2 182114Z 31026KT 18/02 A2974 RMK A01 T01810023  RH  035%=      5-min Rain = 0
KWE2 182115Z 31025KT 18/03 A2974 RMK A01 T01780028  RH  037%=      5-min Rain = 0
KWE2 182116Z 31026KT 17/03 A2974 RMK A01 T01740033  RH  039%=      5-min Rain = 0
KWE2 182117Z 31026KT 17/04 A2974 RMK A01 T01710036  RH  040%=      5-min Rain = 0
KWE2 182118Z 30024KT 17/04 A2974 RMK A01 T01690036  RH  041%=      5-min Rain = 0
KWE2 182119Z 31023G28KT 17/04 A2974 RMK A01 T01680039  RH  042%=      5-min Rain = 0
KWE2 182120Z 31022G27KT 17/04 A2974 RMK A01 T01670043  RH  044%=      5-min Rain = 0
KWE2 182121Z 30025G30KT 17/04 A2974 RMK A01 T01660042  RH  044%=      5-min Rain = 0
KWE2 182122Z 30026KT 17/04 A2974 RMK A01 T01650043  RH  044%=      5-min Rain = 0
KWE2 182123Z 30024G29KT 17/04 A2974 RMK A01 T01650043  RH  044%=      5-min Rain = 0
KWE2 182124Z 31023KT 17/04 A2974 RMK A01 T01650042  RH  044%=      5-min Rain = 0
KWE2 182125Z 31021KT 17/04 A2974 RMK A01 T01650041  RH  043%=      5-min Rain = 0
KWE2 182126Z 31023KT 17/04 A2974 RMK A01 T01660040  RH  043%=      5-min Rain = 0
KWE2 182127Z 31021KT 17/04 A2974 RMK A01 T01660038  RH  043%=      5-min Rain = 0
KWE2 182128Z 31019KT 17/04 A2974 RMK A01 T01660037  RH  042%=      5-min Rain = 0
KWE2 182129Z 30019KT 17/04 A2974 RMK A01 T01670035  RH  041%=      5-min Rain = 0
KWE2 182130Z 31021KT 17/03 A2974 RMK A01 T01690032  RH  040%=      5-min Rain = 0
KWE2 182131Z 30021KT 17/03 A2974 RMK A01 T01690030  RH  039%=      5-min Rain = 0
KWE2 182132Z 30020KT 17/03 A2974 RMK A01 T01710029  RH  039%=      5-min Rain = 0
KWE2 182133Z 30021KT 17/03 A2974 RMK A01 T01710029  RH  038%=      5-min Rain = 0
KWE2 182134Z 30019G24KT 17/03 A2974 RMK A01 T01720030  RH  039%=      5-min Rain = 0
KWE2 182135Z 29020KT 17/03 A2974 RMK A01 T01720030  RH  038%=      5-min Rain = 0
KWE2 182136Z 30018KT 17/03 A2974 RMK A01 T01720030  RH  039%=      5-min Rain = 0
KWE2 182137Z 29018KT 17/03 A2974 RMK A01 T01730031  RH  039%=      5-min Rain = 0
KWE2 182138Z 29021KT 17/03 A2974 RMK A01 T01720031  RH  039%=      5-min Rain = 0
KWE2 182139Z 30020KT 17/03 A2974 RMK A01 T01720032  RH  039%=      5-min Rain = 0
KWE2 182140Z 29018KT 17/03 A2974 RMK A01 T01720033  RH  040%=      5-min Rain = 0
KWE2 182141Z 29018KT 17/03 A2974 RMK A01 T01720033  RH  040%=      5-min Rain = 0
KWE2 182142Z 29018KT 17/03 A2974 RMK A01 T01710034  RH  040%=      5-min Rain = 0
KWE2 182143Z 30018KT 17/03 A2974 RMK A01 T01710031  RH  039%=      5-min Rain = 0
KWE2 182144Z 29021G27KT 17/03 A2974 RMK A01 T01710029  RH  039%=      5-min Rain = 0
KWE2 182145Z 29020KT 17/03 A2974 RMK A01 T01710028  RH  038%=      5-min Rain = 0
KWE2 182146Z 30020KT 17/03 A2974 RMK A01 T01700029  RH  039%=      5-min Rain = 0
KWE2 182147Z 30021KT 17/03 A2974 RMK A01 T01700025  RH  038%=      5-min Rain = 0
KWE2 182148Z 30019G24KT 17/03 A2974 RMK A01 T01700025  RH  038%=      5-min Rain = 0
KWE2 182149Z 30020KT 17/02 A2974 RMK A01 T01700024  RH  037%=      5-min Rain = 0
KWE2 182150Z 30020KT 17/02 A2974 RMK A01 T01700024  RH  038%=      5-min Rain = 0
KWE2 182151Z 29021KT 17/02 A2974 RMK A01 T01700023  RH  037%=      5-min Rain = 0
KWE2 182152Z 29021KT 17/02 A2974 RMK A01 T01690022  RH  037%=      5-min Rain = 0
KWE2 182153Z 29021KT 17/02 A2974 RMK A01 T01690022  RH  037%=      5-min Rain = 0
KWE2 182154Z 29023KT 17/02 A2974 RMK A01 T01680021  RH  037%=      5-min Rain = 0
KWE2 182155Z 29022KT 17/02 A2974 RMK A01 T01680021  RH  037%=      5-min Rain = 0
KWE2 182156Z 29018KT 17/02 A2974 RMK A01 T01680022  RH  038%=      5-min Rain = 0
KWE2 182157Z 29020KT 17/02 A2974 RMK A01 T01680022  RH  038%=      5-min Rain = 0
KWE2 182158Z 29019KT 17/02 A2974 RMK A01 T01680023  RH  038%=      5-min Rain = 0
KWE2 182159Z 30023KT 17/02 A2974 RMK A01 T01680024  RH  038%=      5-min Rain = 0
KWE2 182200Z 30027G32KT 17/02 A2974 RMK A01 T01680021  RH  037%=      5-min Rain = 0
KWE2 182201Z 30027G33KT 17/02 A2974 RMK A01 T01680018  RH  037%=      5-min Rain = 0
KWE2 182202Z 29027KT 17/02 A2974 RMK A01 T01670017  RH  036%=      5-min Rain = 0
KWE2 182203Z 29029KT 17/02 A2974 RMK A01 T01670017  RH  036%=      5-min Rain = 0
KWE2 182204Z 30024KT 17/02 A2975 RMK A01 T01670017  RH  036%=      5-min Rain = 0
KWE2 182205Z 29023KT 17/02 A2975 RMK A01 T01670017  RH  037%=      5-min Rain = 0
KWE2 182206Z 30023G29KT 17/02 A2974 RMK A01 T01670018  RH  037%=      5-min Rain = 0
KWE2 182207Z 29022KT 17/02 A2975 RMK A01 T01670017  RH  036%=      5-min Rain = 0
KWE2 182208Z 29023KT 17/02 A2974 RMK A01 T01660018  RH  037%=      5-min Rain = 0
KWE2 182209Z 29023KT 17/02 A2975 RMK A01 T01660019  RH  037%=      5-min Rain = 0
KWE2 182210Z 29022KT 17/02 A2975 RMK A01 T01660019  RH  037%=      5-min Rain = 0
KWE2 182211Z 29023KT 17/02 A2975 RMK A01 T01650018  RH  037%=      5-min Rain = 0
KWE2 182212Z 29024KT 16/02 A2975 RMK A01 T01640017  RH  037%=      5-min Rain = 0
KWE2 182213Z 29023G28KT 16/02 A2975 RMK A01 T01640017  RH  037%=      5-min Rain = 0
KWE2 182214Z 29024KT 16/02 A2975 RMK A01 T01640017  RH  037%=      5-min Rain = 0
KWE2 182215Z 29022KT 16/02 A2975 RMK A01 T01640018  RH  037%=      5-min Rain = 0
KWE2 182216Z 29023G28KT 16/02 A2975 RMK A01 T01640018  RH  037%=      5-min Rain = 0
KWE2 182217Z 28023G28KT 16/02 A2975 RMK A01 T01640017  RH  037%=      5-min Rain = 0
KWE2 182218Z 29022KT 16/02 A2975 RMK A01 T01640016  RH  037%=      5-min Rain = 0
KWE2 182219Z 29026KT 16/02 A2975 RMK A01 T01640015  RH  036%=      5-min Rain = 0
KWE2 182220Z 29025G31KT 17/01 A2975 RMK A01 T01650014  RH  036%=      5-min Rain = 0
KWE2 182221Z 29023G28KT 17/01 A2975 RMK A01 T01650012  RH  036%=      5-min Rain = 0
KWE2 182222Z 29021KT 17/01 A2976 RMK A01 T01650012  RH  036%=      5-min Rain = 0
KWE2 182223Z 29025KT 17/01 A2975 RMK A01 T01650013  RH  036%=      5-min Rain = 0
KWE2 182224Z 29022G28KT 17/01 A2975 RMK A01 T01650013  RH  036%=      5-min Rain = 0
KWE2 182225Z 29023KT 17/01 A2976 RMK A01 T01650013  RH  036%=      5-min Rain = 0
KWE2 182226Z 29026G31KT 17/01 A2975 RMK A01 T01650011  RH  035%=      5-min Rain = 0
KWE2 182227Z 30025G32KT 17/01 A2975 RMK A01 T01650010  RH  035%=      5-min Rain = 0
KWE2 182228Z 29024G29KT 17/01 A2975 RMK A01 T01650008  RH  034%=      5-min Rain = 0
KWE2 182229Z 29022KT 17/01 A2976 RMK A01 T01650009  RH  035%=      5-min Rain = 0
KWE2 182230Z 29021G27KT 17/01 A2975 RMK A01 T01650008  RH  035%=      5-min Rain = 0
KWE2 182231Z 29027G33KT 17/01 A2976 RMK A01 T01650008  RH  035%=      5-min Rain = 0
KWE2 182232Z 29026G32KT 17/01 A2975 RMK A01 T01650005  RH  034%=      5-min Rain = 0
KWE2 182233Z 29026G31KT 17/00 A2975 RMK A01 T01650004  RH  033%=      5-min Rain = 0
KWE2 182234Z 29026G31KT 16/00 A2976 RMK A01 T01640002  RH  033%=      5-min Rain = 0
KWE2 182235Z 29027G32KT 16/M00 A2976 RMK A01 T01641001  RH  033%=      5-min Rain = 0
KWE2 182236Z 29028KT 16/M00 A2976 RMK A01 T01641002  RH  032%=      5-min Rain = 0
KWE2 182237Z 29025KT 16/M00 A2976 RMK A01 T01631002  RH  032%=      5-min Rain = 0
KWE2 182238Z 29028G33KT 16/M00 A2976 RMK A01 T01631002  RH  032%=      5-min Rain = 0
KWE2 182239Z 29028KT 16/M00 A2976 RMK A01 T01631004  RH  032%=      5-min Rain = 0
KWE2 182240Z 28025G30KT 16/M01 A2976 RMK A01 T01621005  RH  032%=      5-min Rain = 0
KWE2 182241Z 29032KT 16/M01 A2976 RMK A01 T01621008  RH  031%=      5-min Rain = 0
KWE2 182242Z 29032G38KT 16/M01 A2976 RMK A01 T01611010  RH  031%=      5-min Rain = 0
KWE2 182243Z 29031G36KT 16/M01 A2976 RMK A01 T01601010  RH  031%=      5-min Rain = 0
KWE2 182244Z 28029G34KT 16/M01 A2976 RMK A01 T01591011  RH  031%=      5-min Rain = 0
KWE2 182245Z 29029KT 16/M01 A2976 RMK A01 T01571011  RH  031%=      5-min Rain = 0
KWE2 182246Z 29027G36KT 16/M01 A2976 RMK A01 T01561012  RH  032%=      5-min Rain = 0
KWE2 182247Z 29034KT 16/M01 A2976 RMK A01 T01551012  RH  032%=      5-min Rain = 0
KWE2 182248Z 29030G36KT 15/M01 A2977 RMK A01 T01541011  RH  032%=      5-min Rain = 0
KWE2 182249Z 29032G38KT 15/M01 A2976 RMK A01 T01541011  RH  032%=      5-min Rain = 0
KWE2 182250Z 29028G36KT 15/M01 A2977 RMK A01 T01531011  RH  032%=      5-min Rain = 0
KWE2 182251Z 29030KT 15/M01 A2977 RMK A01 T01521012  RH  032%=      5-min Rain = 0
KWE2 182252Z 30028KT 15/M01 A2977 RMK A01 T01521012  RH  032%=      5-min Rain = 0
KWE2 182253Z 29018G24KT 15/M01 A2977 RMK A01 T01511012  RH  033%=      5-min Rain = 0
KWE2 182254Z 29020G26KT 15/M01 A2976 RMK A01 T01511011  RH  033%=      5-min Rain = 0
KWE2 182255Z 29022KT 15/M01 A2976 RMK A01 T01501011  RH  033%=      5-min Rain = 0
KWE2 182256Z 29022KT 15/M01 A2976 RMK A01 T01501012  RH  033%=      5-min Rain = 0
KWE2 182257Z 29019KT 15/M01 A2976 RMK A01 T01491012  RH  033%=      5-min Rain = 0
KWE2 182258Z 29018KT 15/M01 A2976 RMK A01 T01491012  RH  033%=      5-min Rain = 0
KWE2 182259Z 28016KT 15/M01 A2976 RMK A01 T01481011  RH  033%=      5-min Rain = 0
KWE2 182300Z 29017KT 15/M01 A2976 RMK A01 T01481011  RH  034%=      5-min Rain = 0
KWE2 182301Z 29016KT 15/M01 A2976 RMK A01 T01481010  RH  034%=      5-min Rain = 0
KWE2 182302Z 29016KT 15/M01 A2976 RMK A01 T01471010  RH  034%=      5-min Rain = 0
KWE2 182303Z 29017KT 15/M01 A2976 RMK A01 T01481010  RH  034%=      5-min Rain = 0
KWE2 182304Z 28014KT 15/M01 A2976 RMK A01 T01471010  RH  034%=      5-min Rain = 0
KWE2 182305Z 28015KT 15/M01 A2976 RMK A01 T01471010  RH  034%=      5-min Rain = 0
KWE2 182306Z 28016KT 15/M01 A2976 RMK A01 T01471010  RH  034%=      5-min Rain = 0
KWE2 182307Z 29015KT 15/M01 A2976 RMK A01 T01471009  RH  034%=      5-min Rain = 0
KWE2 182308Z 28015KT 15/M01 A2975 RMK A01 T01471009  RH  034%=      5-min Rain = 0
KWE2 182309Z 28016KT 15/M01 A2975 RMK A01 T01461010  RH  034%=      5-min Rain = 0
KWE2 182310Z 28015KT 15/M01 A2975 RMK A01 T01461010  RH  034%=      5-min Rain = 0
KWE2 182311Z 28016KT 15/M01 A2975 RMK A01 T01461010  RH  034%=      5-min Rain = 0
KWE2 182312Z 28016KT 15/M01 A2975 RMK A01 T01461010  RH  034%=      5-min Rain = 0
KWE2 182313Z 28017KT 15/M01 A2975 RMK A01 T01461011  RH  034%=      5-min Rain = 0
KWE2 182314Z 28019KT 15/M01 A2976 RMK A01 T01461012  RH  034%=      5-min Rain = 0
KWE2 182315Z 28019KT 15/M01 A2976 RMK A01 T01461013  RH  034%=      5-min Rain = 0
KWE2 182316Z 28018KT 15/M01 A2976 RMK A01 T01471013  RH  033%=      5-min Rain = 0
KWE2 182317Z 27017KT 15/M01 A2976 RMK A01 T01461013  RH  033%=      5-min Rain = 0
KWE2 182318Z 27017KT 15/M01 A2976 RMK A01 T01461013  RH  033%=      5-min Rain = 0
KWE2 182319Z 27018KT 15/M01 A2976 RMK A01 T01461013  RH  033%=      5-min Rain = 0
KWE2 182320Z 27018G23KT 15/M01 A2977 RMK A01 T01461014  RH  033%=      5-min Rain = 0
KWE2 182321Z 28019KT 15/M02 A2977 RMK A01 T01471016  RH  033%=      5-min Rain = 0
KWE2 182322Z 27022KT 15/M02 A2977 RMK A01 T01471019  RH  032%=      5-min Rain = 0
KWE2 182323Z 28021KT 15/M02 A2977 RMK A01 T01481023  RH  031%=      5-min Rain = 0
KWE2 182324Z 27019KT 15/M02 A2977 RMK A01 T01481024  RH  031%=      5-min Rain = 0
KWE2 182325Z 27018KT 15/M02 A2977 RMK A01 T01481023  RH  031%=      5-min Rain = 0
KWE2 182326Z 27016KT 15/M02 A2976 RMK A01 T01481022  RH  031%=      5-min Rain = 0
KWE2 182327Z 27016G22KT 15/M02 A2977 RMK A01 T01481021  RH  031%=      5-min Rain = 0
KWE2 182328Z 28018KT 15/M02 A2977 RMK A01 T01471021  RH  031%=      5-min Rain = 0
KWE2 182329Z 28019KT 15/M02 A2977 RMK A01 T01471021  RH  031%=      5-min Rain = 0
KWE2 182330Z 28021KT 15/M02 A2977 RMK A01 T01471022  RH  031%=      5-min Rain = 0
KWE2 182331Z 28019KT 15/M02 A2976 RMK A01 T01471020  RH  032%=      5-min Rain = 0
KWE2 182332Z 27018G23KT 15/M02 A2975 RMK A01 T01461024  RH  031%=      5-min Rain = 0
KWE2 182333Z 28023G29KT 15/M04 A2974 RMK A01 T01471038  RH  028%=      5-min Rain = 0
KWE2 182334Z 28022KT 15/M05 A2974 RMK A01 T01521048  RH  025%=      5-min Rain = 0
KWE2 182335Z 28020KT 15/M04 A2974 RMK A01 T01521038  RH  027%=      5-min Rain = 0
KWE2 182336Z 28018KT 15/M04 A2974 RMK A01 T01501035  RH  028%=      5-min Rain = 0
KWE2 182337Z 28019KT 15/M03 A2974 RMK A01 T01491034  RH  028%=      5-min Rain = 0
KWE2 182338Z 29019KT 15/M04 A2974 RMK A01 T01481036  RH  028%=      5-min Rain = 0
KWE2 182339Z 28019KT 15/M04 A2974 RMK A01 T01481037  RH  028%=      5-min Rain = 0
KWE2 182340Z 28017KT 15/M04 A2974 RMK A01 T01471038  RH  028%=      5-min Rain = 0
KWE2 182341Z 28017KT 15/M04 A2974 RMK A01 T01471038  RH  028%=      5-min Rain = 0
KWE2 182342Z 28018G23KT 15/M04 A2974 RMK A01 T01461038  RH  028%=      5-min Rain = 0
KWE2 182343Z 28019KT 15/M04 A2974 RMK A01 T01461041  RH  027%=      5-min Rain = 0
KWE2 182344Z 29021KT 15/M04 A2974 RMK A01 T01461042  RH  027%=      5-min Rain = 0
KWE2 182345Z 28019KT 15/M04 A2975 RMK A01 T01461042  RH  027%=      5-min Rain = 0
KWE2 182346Z 28021KT 15/M04 A2975 RMK A01 T01451042  RH  027%=      5-min Rain = 0
KWE2 182347Z 28021G27KT 15/M04 A2975 RMK A01 T01451041  RH  027%=      5-min Rain = 0
KWE2 182348Z 28020KT 14/M04 A2975 RMK A01 T01441041  RH  028%=      5-min Rain = 0
KWE2 182349Z 28021KT 14/M04 A2975 RMK A01 T01431041  RH  028%=      5-min Rain = 0
KWE2 182350Z 28024G29KT 14/M04 A2975 RMK A01 T01431040  RH  028%=      5-min Rain = 0
KWE2 182351Z 28023KT 14/M04 A2976 RMK A01 T01431041  RH  028%=      5-min Rain = 0
KWE2 182352Z 28021G26KT 14/M04 A2976 RMK A01 T01431040  RH  028%=      5-min Rain = 0
KWE2 182353Z 28025KT 14/M04 A2976 RMK A01 T01421040  RH  028%=      5-min Rain = 0
KWE2 182354Z 28021KT 14/M04 A2976 RMK A01 T01421039  RH  028%=      5-min Rain = 0
KWE2 182355Z 27021KT 14/M04 A2977 RMK A01 T01411038  RH  029%=      5-min Rain = 0
KWE2 182356Z 27020G25KT 14/M04 A2977 RMK A01 T01411037  RH  029%=      5-min Rain = 0
KWE2 182357Z 27020G25KT 14/M04 A2978 RMK A01 T01401037  RH  029%=      5-min Rain = 0
KWE2 182358Z 27023G28KT 14/M04 A2978 RMK A01 T01401037  RH  029%=      5-min Rain = 0
KWE2 182359Z 26020G25KT 14/M04 A2978 RMK A01 T01401036  RH  029%=      5-min Rain = 0
KWE2 190000Z 26024G29KT 14/M04 A2978 RMK A01 T01401036  RH  029%=      5-min Rain = 0
KWE2 190001Z 26025KT 14/M04 A2978 RMK A01 T01401039  RH  029%=      5-min Rain = 0
KWE2 190002Z 26023KT 14/M04 A2978 RMK A01 T01401039  RH  029%=      5-min Rain = 0
KWE2 190003Z 27018KT 14/M04 A2978 RMK A01 T01401039  RH  029%=      5-min Rain = 0
KWE2 190004Z 27023KT 14/M04 A2978 RMK A01 T01391040  RH  029%=      5-min Rain = 0
KWE2 190005Z 27021G26KT 14/M04 A2978 RMK A01 T01391042  RH  028%=      5-min Rain = 0
KWE2 190006Z 27022KT 14/M04 A2977 RMK A01 T01391043  RH  028%=      5-min Rain = 0
KWE2 190007Z 26020KT 14/M04 A2977 RMK A01 T01391043  RH  028%=      5-min Rain = 0
KWE2 190008Z 26022KT 14/M04 A2976 RMK A01 T01391043  RH  028%=      5-min Rain = 0
KWE2 190009Z 26019KT 14/M04 A2976 RMK A01 T01391044  RH  028%=      5-min Rain = 0
KWE2 190010Z 26016KT 14/M04 A2976 RMK A01 T01391043  RH  028%=      5-min Rain = 0
KWE2 190011Z 26015KT 14/M04 A2976 RMK A01 T01381043  RH  028%=      5-min Rain = 0
KWE2 190012Z 26019KT 14/M04 A2976 RMK A01 T01371044  RH  028%=      5-min Rain = 0
KWE2 190013Z 27018G23KT 14/M04 A2976 RMK A01 T01371044  RH  028%=      5-min Rain = 0
KWE2 190014Z 27017KT 14/M04 A2977 RMK A01 T01371044  RH  028%=      5-min Rain = 0
KWE2 190015Z 27019G24KT 14/M04 A2977 RMK A01 T01371044  RH  028%=      5-min Rain = 0
KWE2 190016Z 27023KT 14/M05 A2977 RMK A01 T01371045  RH  028%=      5-min Rain = 0
KWE2 190017Z 27021KT 14/M05 A2977 RMK A01 T01371045  RH  028%=      5-min Rain = 0
KWE2 190018Z 27022KT 14/M05 A2977 RMK A01 T01371045  RH  028%=      5-min Rain = 0
KWE2 190019Z 27018KT 14/M04 A2977 RMK A01 T01371044  RH  028%=      5-min Rain = 0
KWE2 190020Z 27018KT 14/M04 A2977 RMK A01 T01361044  RH  028%=      5-min Rain = 0
KWE2 190021Z 27021KT 14/M04 A2977 RMK A01 T01351044  RH  029%=      5-min Rain = 0
KWE2 190022Z 27021G26KT 14/M04 A2978 RMK A01 T01361044  RH  028%=      5-min Rain = 0
KWE2 190023Z 27023KT 14/M04 A2978 RMK A01 T01371044  RH  028%=      5-min Rain = 0
KWE2 190024Z 27018KT 14/M04 A2978 RMK A01 T01371044  RH  028%=      5-min Rain = 0
KWE2 190025Z 27019KT 14/M04 A2978 RMK A01 T01361044  RH  028%=      5-min Rain = 0
KWE2 190026Z 27018KT 14/M04 A2978 RMK A01 T01361044  RH  028%=      5-min Rain = 0
KWE2 190027Z 27020KT 14/M04 A2978 RMK A01 T01361043  RH  029%=      5-min Rain = 0
KWE2 190028Z 28020KT 14/M04 A2978 RMK A01 T01361044  RH  028%=      5-min Rain = 0
KWE2 190029Z 28021KT 14/M04 A2979 RMK A01 T01361044  RH  028%=      5-min Rain = 0
KWE2 190030Z 27019KT 14/M04 A2978 RMK A01 T01351044  RH  028%=      5-min Rain = 0
KWE2 190031Z 28019KT 14/M04 A2978 RMK A01 T01361044  RH  029%=      5-min Rain = 0
KWE2 190032Z 28019G24KT 14/M04 A2978 RMK A01 T01351044  RH  029%=      5-min Rain = 0
KWE2 190033Z 28019KT 14/M04 A2977 RMK A01 T01351044  RH  028%=      5-min Rain = 0
KWE2 190034Z 28018KT 14/M05 A2977 RMK A01 T01351046  RH  028%=      5-min Rain = 0
KWE2 190035Z 28021KT 14/M05 A2977 RMK A01 T01351047  RH  028%=      5-min Rain = 0
KWE2 190036Z 28020KT 14/M05 A2978 RMK A01 T01351047  RH  028%=      5-min Rain = 0
KWE2 190037Z 28019G24KT 14/M05 A2978 RMK A01 T01351048  RH  028%=      5-min Rain = 0
KWE2 190038Z 28019KT 13/M05 A2978 RMK A01 T01341048  RH  028%=      5-min Rain = 0
KWE2 190039Z 28018KT 13/M05 A2978 RMK A01 T01331048  RH  028%=      5-min Rain = 0
KWE2 190040Z 28017KT 13/M05 A2978 RMK A01 T01321048  RH  028%=      5-min Rain = 0
KWE2 190041Z 28017KT 13/M05 A2978 RMK A01 T01321048  RH  028%=      5-min Rain = 0
KWE2 190042Z 28019KT 13/M05 A2978 RMK A01 T01311048  RH  028%=      5-min Rain = 0
KWE2 190043Z 28020G25KT 13/M05 A2978 RMK A01 T01311048  RH  029%=      5-min Rain = 0
KWE2 190044Z 28020KT 13/M05 A2978 RMK A01 T01311048  RH  029%=      5-min Rain = 0
KWE2 190045Z 28018KT 13/M05 A2978 RMK A01 T01311048  RH  028%=      5-min Rain = 0
KWE2 190046Z 28020KT 13/M05 A2978 RMK A01 T01301048  RH  029%=      5-min Rain = 0
KWE2 190047Z 28020KT 13/M05 A2978 RMK A01 T01301048  RH  029%=      5-min Rain = 0
KWE2 190048Z 28021KT 13/M05 A2978 RMK A01 T01301048  RH  029%=      5-min Rain = 0
KWE2 190049Z 28023KT 13/M05 A2978 RMK A01 T01301048  RH  029%=      5-min Rain = 0
KWE2 190050Z 28023KT 13/M05 A2978 RMK A01 T01301048  RH  029%=      5-min Rain = 0
KWE2 190051Z 29023KT 13/M05 A2978 RMK A01 T01311047  RH  029%=      5-min Rain = 0
KWE2 190052Z 28022KT 13/M05 A2978 RMK A01 T01311047  RH  029%=      5-min Rain = 0
KWE2 190053Z 28021KT 13/M05 A2978 RMK A01 T01301046  RH  029%=      5-min Rain = 0
KWE2 190054Z 29019G24KT 13/M05 A2978 RMK A01 T01291046  RH  029%=      5-min Rain = 0
KWE2 190055Z 28021G27KT 13/M05 A2978 RMK A01 T01281046  RH  030%=      5-min Rain = 0
KWE2 190056Z 28022KT 13/M05 A2978 RMK A01 T01271045  RH  030%=      5-min Rain = 0
KWE2 190057Z 28022KT 13/M05 A2978 RMK A01 T01281045  RH  030%=      5-min Rain = 0
KWE2 190058Z 28022G27KT 13/M05 A2978 RMK A01 T01281045  RH  030%=      5-min Rain = 0
KWE2 190059Z 28022G27KT 13/M05 A2978 RMK A01 T01281045  RH  030%=      5-min Rain = 0
KWE2 190100Z 29024KT 13/M04 A2978 RMK A01 T01281044  RH  030%=      5-min Rain = 0
KWE2 190101Z 28025KT 13/M04 A2978 RMK A01 T01281044  RH  030%=      5-min Rain = 0
KWE2 190102Z 29022G28KT 13/M04 A2978 RMK A01 T01291044  RH  030%=      5-min Rain = 0
KWE2 190103Z 28025KT 13/M04 A2978 RMK A01 T01281044  RH  030%=      5-min Rain = 0
KWE2 190104Z 29023KT 13/M04 A2978 RMK A01 T01281044  RH  030%=      5-min Rain = 0
KWE2 190105Z 28023KT 13/M04 A2978 RMK A01 T01281044  RH  030%=      5-min Rain = 0
KWE2 190106Z 29026G31KT 13/M04 A2978 RMK A01 T01281044  RH  030%=      5-min Rain = 0
KWE2 190107Z 28025KT 13/M04 A2978 RMK A01 T01281044  RH  030%=      5-min Rain = 0
KWE2 190108Z 28024G29KT 13/M04 A2978 RMK A01 T01291044  RH  030%=      5-min Rain = 0
KWE2 190109Z 28025KT 13/M05 A2978 RMK A01 T01281045  RH  030%=      5-min Rain = 0
KWE2 190110Z 28026KT 13/M05 A2979 RMK A01 T01281045  RH  030%=      5-min Rain = 0
KWE2 190111Z 28023KT 13/M05 A2979 RMK A01 T01281045  RH  030%=      5-min Rain = 0
KWE2 190112Z 28026G31KT 13/M05 A2979 RMK A01 T01271045  RH  030%=      5-min Rain = 0
KWE2 190113Z 28025KT 13/M05 A2979 RMK A01 T01281045  RH  030%=      5-min Rain = 0
KWE2 190114Z 29023G29KT 13/M05 A2979 RMK A01 T01281045  RH  030%=      5-min Rain = 0
KWE2 190115Z 28025G32KT 13/M05 A2979 RMK A01 T01271046  RH  030%=      5-min Rain = 0
KWE2 190116Z 28022KT 13/M05 A2979 RMK A01 T01271046  RH  030%=      5-min Rain = 0
KWE2 190117Z 29025KT 13/M05 A2979 RMK A01 T01261046  RH  030%=      5-min Rain = 0
KWE2 190118Z 29025G30KT 13/M05 A2979 RMK A01 T01271047  RH  030%=      5-min Rain = 0
KWE2 190119Z 29026KT 13/M05 A2979 RMK A01 T01271047  RH  029%=      5-min Rain = 0
KWE2 190120Z 29026KT 13/M05 A2979 RMK A01 T01271047  RH  029%=      5-min Rain = 0
KWE2 190121Z 29022KT 13/M05 A298 RMK A01 T01271047  RH  029%=      5-min Rain = 0
KWE2 190122Z 29025G32KT 13/M05 A298 RMK A01 T01261047  RH  030%=      5-min Rain = 0
KWE2 190123Z 29025KT 13/M05 A298 RMK A01 T01261048  RH  029%=      5-min Rain = 0
KWE2 190124Z 29027KT 13/M05 A298 RMK A01 T01261049  RH  029%=      5-min Rain = 0
KWE2 190125Z 29024G29KT 13/M05 A298 RMK A01 T01261049  RH  029%=      5-min Rain = 0
KWE2 190126Z 29022KT 13/M05 A298 RMK A01 T01261049  RH  029%=      5-min Rain = 0
KWE2 190127Z 29026G34KT 13/M05 A298 RMK A01 T01251050  RH  029%=      5-min Rain = 0
KWE2 190128Z 29024KT 13/M05 A298 RMK A01 T01251052  RH  029%=      5-min Rain = 0
KWE2 190129Z 30028G37KT 13/M05 A298 RMK A01 T01251053  RH  028%=      5-min Rain = 0
KWE2 190130Z 30028G34KT 13/M06 A298 RMK A01 T01261055  RH  028%=      5-min Rain = 0
KWE2 190131Z 29027G33KT 13/M06 A2981 RMK A01 T01271055  RH  028%=      5-min Rain = 0
KWE2 190132Z 30028G34KT 13/M06 A2981 RMK A01 T01261056  RH  028%=      5-min Rain = 0
KWE2 190133Z 30028G35KT 13/M06 A2981 RMK A01 T01261057  RH  027%=      5-min Rain = 0
KWE2 190134Z 30029G38KT 13/M06 A2981 RMK A01 T01271058  RH  027%=      5-min Rain = 0
KWE2 190135Z 30036G43KT 13/M06 A2982 RMK A01 T01271061  RH  026%=      5-min Rain = 0
KWE2 190136Z 32036KT 13/M06 A2982 RMK A01 T01291061  RH  026%=      5-min Rain = 0
KWE2 190137Z 31037G43KT 13/M05 A2982 RMK A01 T01291050  RH  028%=      5-min Rain = 0
KWE2 190138Z 32034G42KT 13/M04 A2983 RMK A01 T01281037  RH  032%=      5-min Rain = 0
KWE2 190139Z 32033G39KT 13/M02 A2982 RMK A01 T01261023  RH  036%=      5-min Rain = 0
KWE2 190140Z 32034KT 12/M01 A2983 RMK A01 T01231013  RH  039%=      5-min Rain = 0
KWE2 190141Z 32037G42KT 12/M01 A2983 RMK A01 T01211005  RH  042%=      5-min Rain = 0
KWE2 190142Z 33033G41KT 12/M00 A2983 RMK A01 T01191002  RH  043%=      5-min Rain = 0
KWE2 190143Z 33037G42KT 12/00 A2983 RMK A01 T01170001  RH  045%=      5-min Rain = 0
KWE2 190144Z 34036G41KT 12/00 A2983 RMK A01 T01160004  RH  046%=      5-min Rain = 0
KWE2 190145Z 34032G37KT 12/01 A2983 RMK A01 T01150005  RH  047%=      5-min Rain = 0
KWE2 190146Z 34029G35KT 11/01 A2983 RMK A01 T01130005  RH  047%=      5-min Rain = 0
KWE2 190147Z 33031KT 11/01 A2983 RMK A01 T01120006  RH  048%=      5-min Rain = 0
KWE2 190148Z 33030G35KT 11/01 A2983 RMK A01 T01110006  RH  048%=      5-min Rain = 0
KWE2 190149Z 33028G34KT 11/01 A2983 RMK A01 T01110006  RH  048%=      5-min Rain = 0
KWE2 190150Z 33029KT 11/01 A2983 RMK A01 T01100007  RH  049%=      5-min Rain = 0
KWE2 190151Z 33030KT 11/01 A2984 RMK A01 T01100007  RH  049%=      5-min Rain = 0
KWE2 190152Z 33029KT 11/01 A2984 RMK A01 T01090007  RH  049%=      5-min Rain = 0
KWE2 190153Z 33026G32KT 11/01 A2984 RMK A01 T01090007  RH  049%=      5-min Rain = 0
KWE2 190154Z 33031G36KT 11/01 A2984 RMK A01 T01080007  RH  050%=      5-min Rain = 0
KWE2 190155Z 33031G36KT 11/01 A2984 RMK A01 T01080008  RH  050%=      5-min Rain = 0
KWE2 190156Z 33024G31KT 11/01 A2985 RMK A01 T01080008  RH  050%=      5-min Rain = 0
KWE2 190157Z 33028G33KT 11/01 A2985 RMK A01 T01070008  RH  051%=      5-min Rain = 0
KWE2 190158Z 33027G32KT 11/01 A2985 RMK A01 T01060009  RH  051%=      5-min Rain = 0
KWE2 190159Z 33030G35KT 11/01 A2985 RMK A01 T01050010  RH  052%=      5-min Rain = 0
KWE2 190200Z 33028G33KT 11/01 A2985 RMK A01 T01050010  RH  052%=      5-min Rain = 0
KWE2 190201Z 33027KT 11/01 A2985 RMK A01 T01050010  RH  052%=      5-min Rain = 0
KWE2 190202Z 34028G34KT 10/01 A2985 RMK A01 T01040010  RH  052%=      5-min Rain = 0
KWE2 190203Z 33030G37KT 10/01 A2985 RMK A01 T01030011  RH  053%=      5-min Rain = 0
KWE2 190204Z 33032G39KT 10/01 A2985 RMK A01 T01030012  RH  053%=      5-min Rain = 0
KWE2 190205Z 33028KT 10/01 A2986 RMK A01 T01020013  RH  054%=      5-min Rain = 0
KWE2 190206Z 33027KT 10/01 A2986 RMK A01 T01010012  RH  054%=      5-min Rain = 0
KWE2 190207Z 33023G28KT 10/01 A2986 RMK A01 T01010012  RH  054%=      5-min Rain = 0
KWE2 190208Z 33028KT 10/01 A2986 RMK A01 T01000013  RH  055%=      5-min Rain = 0
KWE2 190209Z 33027G35KT 10/01 A2986 RMK A01 T00990013  RH  055%=      5-min Rain = 0
KWE2 190210Z 32027KT 10/01 A2986 RMK A01 T00990014  RH  055%=      5-min Rain = 0
KWE2 190211Z 33026KT 10/01 A2987 RMK A01 T00990014  RH  055%=      5-min Rain = 0
KWE2 190212Z 33026KT 10/01 A2986 RMK A01 T00980014  RH  056%=      5-min Rain = 0
KWE2 190213Z 32024G30KT 10/01 A2986 RMK A01 T00970014  RH  056%=      5-min Rain = 0
KWE2 190214Z 33023KT 10/01 A2986 RMK A01 T00980014  RH  056%=      5-min Rain = 0
KWE2 190215Z 33024KT 10/01 A2987 RMK A01 T00970014  RH  056%=      5-min Rain = 0
KWE2 190216Z 33024KT 10/01 A2987 RMK A01 T00960014  RH  056%=      5-min Rain = 0
KWE2 190217Z 32023G28KT 10/01 A2987 RMK A01 T00960014  RH  057%=      5-min Rain = 0
KWE2 190218Z 33021KT 10/01 A2987 RMK A01 T00960014  RH  057%=      5-min Rain = 0
KWE2 190219Z 32022KT 10/01 A2987 RMK A01 T00950014  RH  057%=      5-min Rain = 0
KWE2 190220Z 33022KT 10/01 A2987 RMK A01 T00950014  RH  057%=      5-min Rain = 0
KWE2 190221Z 32022KT 09/01 A2988 RMK A01 T00940014  RH  057%=      5-min Rain = 0
KWE2 190222Z 32021G27KT 09/01 A2988 RMK A01 T00930014  RH  058%=      5-min Rain = 0
KWE2 190223Z 33023KT 09/02 A2988 RMK A01 T00930015  RH  058%=      5-min Rain = 0
KWE2 190224Z 32026KT 09/02 A2988 RMK A01 T00930015  RH  058%=      5-min Rain = 0
KWE2 190225Z 33024KT 09/02 A2988 RMK A01 T00930015  RH  058%=      5-min Rain = 0
KWE2 190226Z 33023KT 09/02 A2988 RMK A01 T00930015  RH  058%=      5-min Rain = 0
KWE2 190227Z 32022KT 09/01 A2988 RMK A01 T00930014  RH  058%=      5-min Rain = 0
KWE2 190228Z 32021KT 09/01 A2988 RMK A01 T00920014  RH  058%=      5-min Rain = 0
KWE2 190229Z 32022G28KT 09/01 A2988 RMK A01 T00910014  RH  058%=      5-min Rain = 0
KWE2 190230Z 32023KT 09/01 A2988 RMK A01 T00910014  RH  059%=      5-min Rain = 0
KWE2 190231Z 32026G31KT 09/02 A2988 RMK A01 T00910015  RH  059%=      5-min Rain = 0
KWE2 190232Z 32025KT 09/02 A2989 RMK A01 T00910015  RH  059%=      5-min Rain = 0
KWE2 190233Z 33023G29KT 09/02 A2989 RMK A01 T00910016  RH  059%=      5-min Rain = 0
KWE2 190234Z 32025KT 09/02 A2989 RMK A01 T00900016  RH  060%=      5-min Rain = 0
KWE2 190235Z 33024G29KT 09/02 A2989 RMK A01 T00900016  RH  060%=      5-min Rain = 0
KWE2 190236Z 32023KT 09/02 A2989 RMK A01 T00890016  RH  060%=      5-min Rain = 0
KWE2 190237Z 33024G30KT 09/02 A2989 RMK A01 T00890016  RH  060%=      5-min Rain = 0
KWE2 190238Z 32022KT 09/02 A2989 RMK A01 T00880016  RH  061%=      5-min Rain = 0
KWE2 190239Z 32022KT 09/02 A2989 RMK A01 T00870016  RH  061%=      5-min Rain = 0
KWE2 190240Z 32022KT 09/02 A2989 RMK A01 T00870016  RH  061%=      5-min Rain = 0
KWE2 190241Z 32027G32KT 09/02 A2989 RMK A01 T00860017  RH  062%=      5-min Rain = 0
KWE2 190242Z 33027KT 09/02 A299 RMK A01 T00860017  RH  062%=      5-min Rain = 0
KWE2 190243Z 33023KT 09/02 A299 RMK A01 T00860017  RH  062%=      5-min Rain = 0
KWE2 190244Z 33024G30KT 09/02 A299 RMK A01 T00850017  RH  062%=      5-min Rain = 0
KWE2 190245Z 33024G33KT 08/02 A299 RMK A01 T00840018  RH  063%=      5-min Rain = 0
KWE2 190246Z 33029KT 08/02 A299 RMK A01 T00840020  RH  064%=      5-min Rain = 0
KWE2 190247Z 33028KT 08/02 A299 RMK A01 T00830020  RH  065%=      5-min Rain = 0
KWE2 190248Z 33029KT 08/02 A299 RMK A01 T00820021  RH  065%=      5-min Rain = 0
KWE2 190249Z 33028KT 08/02 A299 RMK A01 T00810021  RH  066%=      5-min Rain = 0
KWE2 190250Z 34025KT 08/02 A299 RMK A01 T00810021  RH  066%=      5-min Rain = 0
KWE2 190251Z 34027KT 08/02 A299 RMK A01 T00800020  RH  066%=      5-min Rain = 0
KWE2 190252Z 34026G31KT 08/02 A299 RMK A01 T00790020  RH  066%=      5-min Rain = 0
KWE2 190253Z 34027KT 08/02 A2991 RMK A01 T00790020  RH  066%=      5-min Rain = 0
KWE2 190254Z 33022G28KT 08/02 A2991 RMK A01 T00780020  RH  067%=      5-min Rain = 0
KWE2 190255Z 33023G37KT 08/02 A2991 RMK A01 T00770020  RH  067%=      5-min Rain = 0
KWE2 190256Z 33031G37KT 08/02 A2991 RMK A01 T00760020  RH  067%=      5-min Rain = 0
KWE2 190257Z 33033G40KT 08/02 A2991 RMK A01 T00760020  RH  067%=      5-min Rain = 0
KWE2 190258Z 33035G42KT 08/02 A2991 RMK A01 T00760019  RH  067%=      5-min Rain = 0
KWE2 190259Z 34032G38KT 08/02 A2991 RMK A01 T00750018  RH  067%=      5-min Rain = 0
KWE2 190300Z 33030KT 08/02 A2991 RMK A01 T00750018  RH  067%=      5-min Rain = 0
KWE2 190301Z 33029G34KT 07/02 A2992 RMK A01 T00740018  RH  068%=      5-min Rain = 0
KWE2 190302Z 33029KT 07/02 A2992 RMK A01 T00740018  RH  068%=      5-min Rain = 0
KWE2 190303Z 33032G37KT 07/02 A2992 RMK A01 T00730018  RH  068%=      5-min Rain = 0
KWE2 190304Z 33032G37KT 07/02 A2992 RMK A01 T00730018  RH  068%=      5-min Rain = 0
KWE2 190305Z 34031G37KT 07/02 A2992 RMK A01 T00720017  RH  068%=      5-min Rain = 0
KWE2 190306Z 33032G38KT 07/02 A2992 RMK A01 T00720017  RH  068%=      5-min Rain = 0
KWE2 190307Z 34029G35KT 07/02 A2992 RMK A01 T00720017  RH  068%=      5-min Rain = 0
KWE2 190308Z 34030G35KT 07/02 A2992 RMK A01 T00710017  RH  068%=      5-min Rain = 0
KWE2 190309Z 34029G36KT 07/02 A2992 RMK A01 T00710017  RH  069%=      5-min Rain = 0
KWE2 190310Z 33032KT 07/02 A2992 RMK A01 T00710017  RH  069%=      5-min Rain = 0
KWE2 190311Z 34030G37KT 07/02 A2992 RMK A01 T00710018  RH  069%=      5-min Rain = 0
KWE2 190312Z 34027G32KT 07/02 A2993 RMK A01 T00710018  RH  069%=      5-min Rain = 0
KWE2 190313Z 34028KT 07/02 A2993 RMK A01 T00710018  RH  069%=      5-min Rain = 0
KWE2 190314Z 33028G35KT 07/02 A2993 RMK A01 T00710017  RH  069%=      5-min Rain = 0
KWE2 190315Z 34028G33KT 07/02 A2993 RMK A01 T00710018  RH  069%=      5-min Rain = 0
KWE2 190316Z 33030G35KT 07/02 A2993 RMK A01 T00710018  RH  069%=      5-min Rain = 0
KWE2 190317Z 33027KT 07/02 A2993 RMK A01 T00710017  RH  069%=      5-min Rain = 0
KWE2 190318Z 34029KT 07/02 A2993 RMK A01 T00710017  RH  069%=      5-min Rain = 0
KWE2 190319Z 34026KT 07/02 A2993 RMK A01 T00710017  RH  069%=      5-min Rain = 0
KWE2 190320Z 34027KT 07/02 A2994 RMK A01 T00710018  RH  069%=      5-min Rain = 0
KWE2 190321Z 33025G32KT 07/02 A2994 RMK A01 T00710018  RH  069%=      5-min Rain = 0
KWE2 190322Z 33024G29KT 07/02 A2994 RMK A01 T00720019  RH  069%=      5-min Rain = 0
KWE2 190323Z 33024G31KT 07/02 A2994 RMK A01 T00720019  RH  069%=      5-min Rain = 0
KWE2 190324Z 34024G29KT 07/02 A2994 RMK A01 T00720019  RH  069%=      5-min Rain = 0
KWE2 190325Z 33025G31KT 07/02 A2994 RMK A01 T00720019  RH  069%=      5-min Rain = 0
KWE2 190326Z 33021KT 07/02 A2994 RMK A01 T00720019  RH  069%=      5-min Rain = 0
KWE2 190327Z 34023KT 07/02 A2994 RMK A01 T00720019  RH  069%=      5-min Rain = 0
KWE2 190328Z 33023G31KT 07/02 A2994 RMK A01 T00720019  RH  069%=      5-min Rain = 0
KWE2 190329Z 33026G32KT 07/02 A2994 RMK A01 T00720020  RH  070%=      5-min Rain = 0
KWE2 190330Z 33026KT 07/02 A2994 RMK A01 T00720020  RH  070%=      5-min Rain = 0
KWE2 190331Z 33028G34KT 07/02 A2994 RMK A01 T00720021  RH  070%=      5-min Rain = 0
KWE2 190332Z 33026G31KT 07/02 A2994 RMK A01 T00710020  RH  070%=      5-min Rain = 0
KWE2 190333Z 34026KT 07/02 A2994 RMK A01 T00710020  RH  070%=      5-min Rain = 0
KWE2 190334Z 33026KT 07/02 A2994 RMK A01 T00710020  RH  070%=      5-min Rain = 0
KWE2 190335Z 33024KT 07/02 A2994 RMK A01 T00700020  RH  070%=      5-min Rain = 0
KWE2 190336Z 33025G31KT 07/02 A2994 RMK A01 T00700021  RH  071%=      5-min Rain = 0
KWE2 190337Z 33027G32KT 07/02 A2994 RMK A01 T00690021  RH  072%=      5-min Rain = 0
KWE2 190338Z 33029G36KT 07/02 A2994 RMK A01 T00690022  RH  072%=      5-min Rain = 0
KWE2 190339Z 33025KT 07/02 A2994 RMK A01 T00680024  RH  073%=      5-min Rain = 0
KWE2 190340Z 33023KT 07/03 A2995 RMK A01 T00680025  RH  074%=      5-min Rain = 0
KWE2 190341Z 33022KT 07/03 A2995 RMK A01 T00670025  RH  075%=      5-min Rain = 0
KWE2 190342Z 33020KT 07/03 A2995 RMK A01 T00670026  RH  075%=      5-min Rain = 0
KWE2 190343Z 33027KT 07/03 A2995 RMK A01 T00670026  RH  075%=      5-min Rain = 0
KWE2 190344Z 33026KT 07/03 A2995 RMK A01 T00680025  RH  074%=      5-min Rain = 0
KWE2 190345Z 33022G27KT 07/03 A2995 RMK A01 T00680025  RH  074%=      5-min Rain = 0
KWE2 190346Z 33022KT 07/02 A2995 RMK A01 T00680024  RH  074%=      5-min Rain = 0
KWE2 190347Z 33025KT 07/02 A2995 RMK A01 T00690024  RH  073%=      5-min Rain = 0
KWE2 190348Z 33026KT 07/02 A2995 RMK A01 T00690024  RH  073%=      5-min Rain = 0
KWE2 190349Z 33022G27KT 07/02 A2996 RMK A01 T00690023  RH  073%=      5-min Rain = 0
KWE2 190350Z 33027G33KT 07/02 A2995 RMK A01 T00690023  RH  073%=      5-min Rain = 0
KWE2 190351Z 33025KT 07/02 A2996 RMK A01 T00690023  RH  072%=      5-min Rain = 0
KWE2 190352Z 32030KT 07/02 A2996 RMK A01 T00690023  RH  072%=      5-min Rain = 0
KWE2 190353Z 33024G29KT 07/02 A2996 RMK A01 T00690023  RH  072%=      5-min Rain = 0
KWE2 190354Z 32024G32KT 07/02 A2996 RMK A01 T00690023  RH  073%=      5-min Rain = 0
KWE2 190355Z 33025KT 07/02 A2996 RMK A01 T00690023  RH  073%=      5-min Rain = 0
KWE2 190356Z 32022KT 07/02 A2996 RMK A01 T00680023  RH  073%=      5-min Rain = 0
KWE2 190357Z 32023G28KT 07/02 A2996 RMK A01 T00680024  RH  073%=      5-min Rain = 0
KWE2 190358Z 33022KT 07/02 A2996 RMK A01 T00680024  RH  073%=      5-min Rain = 0
KWE2 190359Z 32021KT 07/02 A2996 RMK A01 T00680024  RH  074%=      5-min Rain = 0
KWE2 190400Z 32022G28KT 07/02 A2997 RMK A01 T00670024  RH  074%=      5-min Rain = 0
KWE2 190401Z 33025KT 07/02 A2996 RMK A01 T00670024  RH  074%=      5-min Rain = 0
KWE2 190402Z 33025KT 07/02 A2996 RMK A01 T00670024  RH  074%=      5-min Rain = 0
KWE2 190403Z 33022KT 07/02 A2997 RMK A01 T00670024  RH  074%=      5-min Rain = 0
KWE2 190404Z 33021KT 07/02 A2997 RMK A01 T00660024  RH  074%=      5-min Rain = 0
KWE2 190405Z 33021G27KT 07/02 A2997 RMK A01 T00660023  RH  074%=      5-min Rain = 0
KWE2 190406Z 32023KT 07/02 A2997 RMK A01 T00660023  RH  074%=      5-min Rain = 0
KWE2 190407Z 32025KT 07/02 A2997 RMK A01 T00660023  RH  074%=      5-min Rain = 0
KWE2 190408Z 33025KT 07/02 A2997 RMK A01 T00660022  RH  074%=      5-min Rain = 0
KWE2 190409Z 33028KT 07/02 A2997 RMK A01 T00660021  RH  073%=      5-min Rain = 0
KWE2 190410Z 33024G30KT 07/02 A2997 RMK A01 T00660021  RH  073%=      5-min Rain = 0
KWE2 190411Z 33022KT 07/02 A2998 RMK A01 T00660020  RH  073%=      5-min Rain = 0
KWE2 190412Z 33025G31KT 07/02 A2998 RMK A01 T00660020  RH  072%=      5-min Rain = 0
KWE2 190413Z 33026KT 07/02 A2998 RMK A01 T00660019  RH  072%=      5-min Rain = 0
KWE2 190414Z 33028G34KT 07/02 A2998 RMK A01 T00660018  RH  071%=      5-min Rain = 0
KWE2 190415Z 33028G34KT 07/02 A2998 RMK A01 T00660017  RH  071%=      5-min Rain = 0
KWE2 190416Z 33032G37KT 07/02 A2998 RMK A01 T00670016  RH  070%=      5-min Rain = 0
KWE2 190417Z 33028G33KT 07/02 A2998 RMK A01 T00670015  RH  070%=      5-min Rain = 0
KWE2 190418Z 33028G33KT 07/02 A2998 RMK A01 T00670015  RH  069%=      5-min Rain = 0
KWE2 190419Z 33030KT 07/01 A2998 RMK A01 T00670014  RH  069%=      5-min Rain = 0
KWE2 190420Z 34029G35KT 07/02 A2998 RMK A01 T00670015  RH  069%=      5-min Rain = 0
KWE2 190421Z 33026KT 07/02 A2999 RMK A01 T00670015  RH  069%=      5-min Rain = 0
KWE2 190422Z 33031KT 07/02 A2999 RMK A01 T00670015  RH  069%=      5-min Rain = 0
KWE2 190423Z 33031G37KT 07/01 A2999 RMK A01 T00670014  RH  069%=      5-min Rain = 0
KWE2 190424Z 33025KT 07/01 A2999 RMK A01 T00660014  RH  069%=      5-min Rain = 0
KWE2 190425Z 34027G33KT 07/01 A2999 RMK A01 T00660014  RH  069%=      5-min Rain = 0
KWE2 190426Z 33030KT 07/01 A2999 RMK A01 T00660014  RH  069%=      5-min Rain = 0
KWE2 190427Z 33028KT 07/01 A2999 RMK A01 T00660013  RH  069%=      5-min Rain = 0
KWE2 190428Z 33033KT 07/01 A2999 RMK A01 T00660012  RH  068%=      5-min Rain = 0
KWE2 190429Z 33027G32KT 07/01 A30 RMK A01 T00650011  RH  068%=      5-min Rain = 0
KWE2 190430Z 34027G33KT 07/01 A30 RMK A01 T00650010  RH  068%=      5-min Rain = 0
KWE2 190431Z 34027KT 07/01 A30 RMK A01 T00650010  RH  068%=      5-min Rain = 0
KWE2 190432Z 34030G37KT 07/01 A30 RMK A01 T00650009  RH  068%=      5-min Rain = 0
KWE2 190433Z 34032KT 06/01 A30 RMK A01 T00640008  RH  067%=      5-min Rain = 0
KWE2 190434Z 34032KT 06/01 A30 RMK A01 T00640007  RH  067%=      5-min Rain = 0
KWE2 190435Z 35031KT 06/01 A30 RMK A01 T00640007  RH  067%=      5-min Rain = 0
KWE2 190436Z 34024KT 06/01 A3001 RMK A01 T00630007  RH  067%=      5-min Rain = 0
KWE2 190437Z 35024KT 06/01 A3001 RMK A01 T00630008  RH  068%=      5-min Rain = 0
KWE2 190438Z 00024G30KT 06/01 A3001 RMK A01 T00620010  RH  069%=      5-min Rain = 0
KWE2 190439Z 36026G31KT 06/01 A3001 RMK A01 T00600014  RH  072%=      5-min Rain = 0
KWE2 190440Z 36024KT 06/02 A3001 RMK A01 T00590016  RH  074%=      5-min Rain = 0
KWE2 190441Z 35022G28KT 06/02 A3001 RMK A01 T00570017  RH  075%=      5-min Rain = 0
KWE2 190442Z 35024KT 06/02 A3001 RMK A01 T00560018  RH  076%=      5-min Rain = 0
KWE2 190443Z 36025KT 06/02 A3001 RMK A01 T00550017  RH  077%=      5-min Rain = 0
KWE2 190444Z 36024G30KT 05/02 A3002 RMK A01 T00540017  RH  077%=      5-min Rain = 0
KWE2 190445Z 35026G31KT 05/02 A3001 RMK A01 T00540017  RH  077%=      5-min Rain = 0
KWE2 190446Z 35025KT 05/02 A3002 RMK A01 T00530016  RH  077%=      5-min Rain = 0
KWE2 190447Z 35027G32KT 05/02 A3002 RMK A01 T00530016  RH  077%=      5-min Rain = 0
KWE2 190448Z 35027G33KT 05/02 A3002 RMK A01 T00530016  RH  077%=      5-min Rain = 0
KWE2 190449Z 35026KT 05/02 A3002 RMK A01 T00520016  RH  078%=      5-min Rain = 0
KWE2 190450Z 35021G27KT 05/02 A3002 RMK A01 T00520016  RH  078%=      5-min Rain = 0
KWE2 190451Z 35024G29KT 05/02 A3002 RMK A01 T00520016  RH  078%=      5-min Rain = 0
KWE2 190452Z 35024G30KT 05/02 A3002 RMK A01 T00520016  RH  078%=      5-min Rain = 0
KWE2 190453Z 36023G31KT 05/02 A3002 RMK A01 T00510017  RH  078%=      5-min Rain = 0
KWE2 190454Z 00020G25KT 05/02 A3003 RMK A01 T00510018  RH  079%=      5-min Rain = 0
KWE2 190455Z 00020KT 05/02 A3003 RMK A01 T00500018  RH  080%=      5-min Rain = 0
KWE2 190456Z 00021G26KT 05/02 A3003 RMK A01 T00480018  RH  081%=      5-min Rain = 0
KWE2 190457Z 00023KT 05/02 A3003 RMK A01 T00460017  RH  081%=      5-min Rain = 0
KWE2 190458Z 00020KT 05/02 A3003 RMK A01 T00460017  RH  082%=      5-min Rain = 0
KWE2 190459Z 36025G30KT 05/02 A3003 RMK A01 T00450018  RH  082%=      5-min Rain = 0
KWE2 190500Z 35029KT 05/02 A3003 RMK A01 T00450017  RH  082%=      5-min Rain = 0
KWE2 190501Z 35031KT 05/02 A3003 RMK A01 T00450016  RH  081%=      5-min Rain = 0
KWE2 190502Z 35028KT 05/02 A3004 RMK A01 T00450015  RH  081%=      5-min Rain = 0
KWE2 190503Z 35027KT 04/01 A3004 RMK A01 T00440014  RH  081%=      5-min Rain = 0
KWE2 190504Z 36031G37KT 04/01 A3004 RMK A01 T00430013  RH  081%=      5-min Rain = 0
KWE2 190505Z 36028KT 04/01 A3004 RMK A01 T00420012  RH  081%=      5-min Rain = 0
KWE2 190506Z 35025G30KT 04/01 A3004 RMK A01 T00410012  RH  082%=      5-min Rain = 0
KWE2 190507Z 00026G33KT 04/01 A3004 RMK A01 T00400012  RH  082%=      5-min Rain = 0
KWE2 190508Z 36026KT 04/01 A3004 RMK A01 T00370007  RH  081%=      5-min Rain = 0
KWE2 190509Z 36028G33KT 04/01 A3004 RMK A01 T00360005  RH  081%=      5-min Rain = 0
KWE2 190510Z 36027KT 04/01 A3004 RMK A01 T00350005  RH  081%=      5-min Rain = 0
KWE2 190511Z 36028G34KT 03/01 A3005 RMK A01 T00340005  RH  082%=      5-min Rain = 0
KWE2 190512Z 36025G30KT 03/01 A3005 RMK A01 T00340005  RH  082%=      5-min Rain = 0
KWE2 190513Z 36027KT 03/01 A3005 RMK A01 T00340005  RH  081%=      5-min Rain = 0
KWE2 190514Z 36023KT 03/01 A3005 RMK A01 T00330005  RH  081%=      5-min Rain = 0
KWE2 190515Z 35024KT 03/01 A3006 RMK A01 T00330005  RH  082%=      5-min Rain = 0
KWE2 190516Z 35025KT 03/01 A3006 RMK A01 T00330005  RH  082%=      5-min Rain = 0
KWE2 190517Z 35026G31KT 03/01 A3006 RMK A01 T00330005  RH  082%=      5-min Rain = 0
KWE2 190518Z 35023G29KT 03/01 A3006 RMK A01 T00330005  RH  082%=      5-min Rain = 0
KWE2 190519Z 35025G31KT 03/01 A3006 RMK A01 T00330005  RH  082%=      5-min Rain = 0
KWE2 190520Z 35021KT 03/00 A3006 RMK A01 T00330004  RH  082%=      5-min Rain = 0
KWE2 190521Z 36019G27KT 03/00 A3006 RMK A01 T00320004  RH  082%=      5-min Rain = 0
KWE2 190522Z 36026KT 03/00 A3006 RMK A01 T00320004  RH  082%=      5-min Rain = 0
KWE2 190523Z 36025KT 03/00 A3006 RMK A01 T00310003  RH  082%=      5-min Rain = 0
KWE2 190524Z 35021KT 03/00 A3007 RMK A01 T00300003  RH  083%=      5-min Rain = 0
KWE2 190525Z 35024KT 03/00 A3007 RMK A01 T00300004  RH  083%=      5-min Rain = 0
KWE2 190526Z 36021G26KT 03/00 A3007 RMK A01 T00290004  RH  083%=      5-min Rain = 0
KWE2 190527Z 35022KT 03/01 A3007 RMK A01 T00290005  RH  084%=      5-min Rain = 0
KWE2 190528Z 35021KT 03/01 A3007 RMK A01 T00290005  RH  084%=      5-min Rain = 0
KWE2 190529Z 35019G24KT 03/01 A3007 RMK A01 T00280005  RH  085%=      5-min Rain = 0
KWE2 190530Z 35021KT 03/01 A3007 RMK A01 T00280005  RH  085%=      5-min Rain = 0
KWE2 190531Z 35020KT 03/01 A3007 RMK A01 T00280005  RH  085%=      5-min Rain = 0
KWE2 190532Z 35024KT 03/01 A3007 RMK A01 T00280005  RH  085%=      5-min Rain = 0
KWE2 190533Z 35024KT 03/00 A3007 RMK A01 T00280004  RH  084%=      5-min Rain = 0
KWE2 190534Z 35021KT 03/00 A3007 RMK A01 T00280002  RH  083%=      5-min Rain = 0
KWE2 190535Z 35020KT 03/00 A3007 RMK A01 T00290002  RH  083%=      5-min Rain = 0
KWE2 190536Z 35024KT 03/00 A3007 RMK A01 T00290001  RH  082%=      5-min Rain = 0
KWE2 190537Z 35024KT 03/00 A3007 RMK A01 T00290001  RH  082%=      5-min Rain = 0
KWE2 190538Z 34019KT 03/00 A3008 RMK A01 T00290000  RH  082%=      5-min Rain = 0
KWE2 190539Z 35022KT 03/M00 A3007 RMK A01 T00281001  RH  081%=      5-min Rain = 0
KWE2 190540Z 35022KT 03/00 A3007 RMK A01 T002800-0  RH  081%=      5-min Rain = 0
KWE2 190541Z 35021G26KT 03/M00 A3007 RMK A01 T00281001  RH  081%=      5-min Rain = 0
KWE2 190542Z 34023KT 03/M00 A3007 RMK A01 T00281001  RH  081%=      5-min Rain = 0
KWE2 190543Z 35026G31KT 03/M00 A3007 RMK A01 T00281002  RH  080%=      5-min Rain = 0
KWE2 190544Z 35025G31KT 03/M00 A3007 RMK A01 T00281003  RH  080%=      5-min Rain = 0
KWE2 190545Z 35026KT 03/M00 A3007 RMK A01 T00291003  RH  080%=      5-min Rain = 0
KWE2 190546Z 34021KT 03/M00 A3008 RMK A01 T00291003  RH  079%=      5-min Rain = 0
KWE2 190547Z 35026G31KT 03/M00 A3007 RMK A01 T00291003  RH  079%=      5-min Rain = 0
KWE2 190548Z 34021KT 03/M00 A3008 RMK A01 T00291004  RH  079%=      5-min Rain = 0
KWE2 190549Z 34023G28KT 03/M00 A3008 RMK A01 T00291004  RH  079%=      5-min Rain = 0
KWE2 190550Z 35021KT 03/M00 A3007 RMK A01 T00291004  RH  079%=      5-min Rain = 0
KWE2 190551Z 34023KT 03/M00 A3007 RMK A01 T00291004  RH  079%=      5-min Rain = 0
KWE2 190552Z 34022G27KT 03/M00 A3007 RMK A01 T00291004  RH  079%=      5-min Rain = 0
KWE2 190553Z 35026G31KT 03/M00 A3008 RMK A01 T00291004  RH  079%=      5-min Rain = 0
KWE2 190554Z 35025KT 03/M00 A3007 RMK A01 T00291004  RH  079%=      5-min Rain = 0
KWE2 190555Z 34022KT 03/M00 A3008 RMK A01 T00291004  RH  079%=      5-min Rain = 0
KWE2 190556Z 35022KT 03/M00 A3008 RMK A01 T00291004  RH  079%=      5-min Rain = 0
KWE2 190557Z 35021KT 03/M00 A3008 RMK A01 T00281004  RH  079%=      5-min Rain = 0
KWE2 190558Z 35025G30KT 03/M00 A3007 RMK A01 T00281004  RH  079%=      5-min Rain = 0
KWE2 190559Z 35024KT 03/M00 A3007 RMK A01 T00281004  RH  079%=      5-min Rain = 0

Page generated in 0.0713 seconds.